<?xml version="1.0" encoding="UTF-8" standalone="no" ?>
<gpx xmlns="http://www.topografix.com/GPX/1/1" xmlns:xsi="http://www.w3.org/2001/XMLSchema-instance" xsi:schemaLocation="http://www.topografix.com/GPX/1/1 http://www.topografix.com/GPX/1/1/gpx.xsd" version="1.1" creator="VisuGPX - https://www.visugpx.com">
  <metadata>
    <name>2019-11-17 Boucle autour de Montaud-Garigues-Campagne 34Km</name>
    <desc><![CDATA[circuit tranquille pour VTC majoritairement sur petites routes et quelques chemins]]></desc>
  </metadata>
  <trk>
    <name><![CDATA[2019-11-17 16:17:37]]></name>
    <trkseg>
      <trkpt lat="43.75273" lon="3.95583">
        <ele>96.27</ele>
        <time>2019-11-17T12:36:57Z</time>
      </trkpt>
      <trkpt lat="43.75271" lon="3.95586">
        <ele>93.39</ele>
        <time>2019-11-17T12:37:18Z</time>
      </trkpt>
      <trkpt lat="43.7527" lon="3.95584">
        <ele>93.87</ele>
        <time>2019-11-17T12:37:45Z</time>
      </trkpt>
      <trkpt lat="43.75269" lon="3.95587">
        <ele>93.87</ele>
        <time>2019-11-17T12:38:02Z</time>
      </trkpt>
      <trkpt lat="43.75268" lon="3.95588">
        <ele>92.9</ele>
        <time>2019-11-17T12:38:17Z</time>
      </trkpt>
      <trkpt lat="43.75268" lon="3.95584">
        <ele>89.54</ele>
        <time>2019-11-17T12:38:31Z</time>
      </trkpt>
      <trkpt lat="43.75269" lon="3.95584">
        <ele>89.54</ele>
        <time>2019-11-17T12:38:44Z</time>
      </trkpt>
      <trkpt lat="43.75269" lon="3.95584">
        <ele>90.02</ele>
        <time>2019-11-17T12:39:01Z</time>
      </trkpt>
      <trkpt lat="43.75267" lon="3.95583">
        <ele>87.62</ele>
        <time>2019-11-17T12:39:17Z</time>
      </trkpt>
      <trkpt lat="43.75268" lon="3.9558">
        <ele>85.21</ele>
        <time>2019-11-17T12:39:39Z</time>
      </trkpt>
      <trkpt lat="43.75269" lon="3.9558">
        <ele>88.1</ele>
        <time>2019-11-17T12:39:57Z</time>
      </trkpt>
      <trkpt lat="43.75269" lon="3.95577">
        <ele>88.58</ele>
        <time>2019-11-17T12:40:12Z</time>
      </trkpt>
      <trkpt lat="43.7527" lon="3.95578">
        <ele>90.98</ele>
        <time>2019-11-17T12:40:29Z</time>
      </trkpt>
      <trkpt lat="43.75269" lon="3.95576">
        <ele>88.58</ele>
        <time>2019-11-17T12:40:47Z</time>
      </trkpt>
      <trkpt lat="43.75269" lon="3.95576">
        <ele>88.58</ele>
        <time>2019-11-17T12:40:48Z</time>
      </trkpt>
      <trkpt lat="43.75267" lon="3.95575">
        <ele>88.58</ele>
        <time>2019-11-17T12:40:50Z</time>
      </trkpt>
      <trkpt lat="43.75268" lon="3.95587">
        <ele>89.54</ele>
        <time>2019-11-17T12:40:56Z</time>
      </trkpt>
      <trkpt lat="43.75269" lon="3.9559">
        <ele>89.54</ele>
        <time>2019-11-17T12:40:57Z</time>
      </trkpt>
      <trkpt lat="43.7527" lon="3.95593">
        <ele>89.06</ele>
        <time>2019-11-17T12:40:58Z</time>
      </trkpt>
      <trkpt lat="43.75296" lon="3.95651">
        <ele>90.02</ele>
        <time>2019-11-17T12:41:12Z</time>
      </trkpt>
      <trkpt lat="43.75328" lon="3.95716">
        <ele>89.54</ele>
        <time>2019-11-17T12:41:27Z</time>
      </trkpt>
      <trkpt lat="43.75328" lon="3.95721">
        <ele>89.54</ele>
        <time>2019-11-17T12:41:28Z</time>
      </trkpt>
      <trkpt lat="43.75326" lon="3.95725">
        <ele>89.54</ele>
        <time>2019-11-17T12:41:29Z</time>
      </trkpt>
      <trkpt lat="43.75323" lon="3.95727">
        <ele>89.54</ele>
        <time>2019-11-17T12:41:30Z</time>
      </trkpt>
      <trkpt lat="43.7532" lon="3.95729">
        <ele>89.54</ele>
        <time>2019-11-17T12:41:31Z</time>
      </trkpt>
      <trkpt lat="43.75263" lon="3.95756">
        <ele>92.9</ele>
        <time>2019-11-17T12:41:47Z</time>
      </trkpt>
      <trkpt lat="43.75223" lon="3.95772">
        <ele>94.35</ele>
        <time>2019-11-17T12:41:59Z</time>
      </trkpt>
      <trkpt lat="43.75215" lon="3.95775">
        <ele>93.39</ele>
        <time>2019-11-17T12:42:04Z</time>
      </trkpt>
      <trkpt lat="43.75214" lon="3.95776">
        <ele>93.39</ele>
        <time>2019-11-17T12:42:05Z</time>
      </trkpt>
      <trkpt lat="43.75214" lon="3.95779">
        <ele>93.39</ele>
        <time>2019-11-17T12:42:06Z</time>
      </trkpt>
      <trkpt lat="43.75215" lon="3.95781">
        <ele>93.39</ele>
        <time>2019-11-17T12:42:07Z</time>
      </trkpt>
      <trkpt lat="43.75217" lon="3.95783">
        <ele>93.39</ele>
        <time>2019-11-17T12:42:08Z</time>
      </trkpt>
      <trkpt lat="43.75219" lon="3.95786">
        <ele>93.39</ele>
        <time>2019-11-17T12:42:09Z</time>
      </trkpt>
      <trkpt lat="43.75219" lon="3.95789">
        <ele>93.39</ele>
        <time>2019-11-17T12:42:10Z</time>
      </trkpt>
      <trkpt lat="43.7522" lon="3.95793">
        <ele>92.9</ele>
        <time>2019-11-17T12:42:11Z</time>
      </trkpt>
      <trkpt lat="43.75221" lon="3.95798">
        <ele>92.42</ele>
        <time>2019-11-17T12:42:12Z</time>
      </trkpt>
      <trkpt lat="43.75222" lon="3.95803">
        <ele>91.94</ele>
        <time>2019-11-17T12:42:13Z</time>
      </trkpt>
      <trkpt lat="43.75242" lon="3.95871">
        <ele>91.94</ele>
        <time>2019-11-17T12:42:28Z</time>
      </trkpt>
      <trkpt lat="43.75258" lon="3.95919">
        <ele>94.35</ele>
        <time>2019-11-17T12:42:42Z</time>
      </trkpt>
      <trkpt lat="43.75275" lon="3.95959">
        <ele>93.39</ele>
        <time>2019-11-17T12:42:54Z</time>
      </trkpt>
      <trkpt lat="43.75295" lon="3.9602">
        <ele>94.35</ele>
        <time>2019-11-17T12:43:09Z</time>
      </trkpt>
      <trkpt lat="43.75315" lon="3.96087">
        <ele>94.83</ele>
        <time>2019-11-17T12:43:25Z</time>
      </trkpt>
      <trkpt lat="43.75329" lon="3.96155">
        <ele>98.67</ele>
        <time>2019-11-17T12:43:43Z</time>
      </trkpt>
      <trkpt lat="43.75337" lon="3.96191">
        <ele>102.04</ele>
        <time>2019-11-17T12:43:55Z</time>
      </trkpt>
      <trkpt lat="43.75351" lon="3.96237">
        <ele>103</ele>
        <time>2019-11-17T12:44:10Z</time>
      </trkpt>
      <trkpt lat="43.7536" lon="3.96289">
        <ele>102.04</ele>
        <time>2019-11-17T12:44:24Z</time>
      </trkpt>
      <trkpt lat="43.75364" lon="3.9631">
        <ele>100.6</ele>
        <time>2019-11-17T12:44:28Z</time>
      </trkpt>
      <trkpt lat="43.75369" lon="3.96389">
        <ele>93.39</ele>
        <time>2019-11-17T12:44:38Z</time>
      </trkpt>
      <trkpt lat="43.75369" lon="3.96398">
        <ele>93.39</ele>
        <time>2019-11-17T12:44:39Z</time>
      </trkpt>
      <trkpt lat="43.75369" lon="3.96422">
        <ele>93.39</ele>
        <time>2019-11-17T12:44:43Z</time>
      </trkpt>
      <trkpt lat="43.75367" lon="3.96424">
        <ele>93.39</ele>
        <time>2019-11-17T12:44:44Z</time>
      </trkpt>
      <trkpt lat="43.75364" lon="3.96425">
        <ele>93.87</ele>
        <time>2019-11-17T12:44:45Z</time>
      </trkpt>
      <trkpt lat="43.75323" lon="3.96433">
        <ele>94.35</ele>
        <time>2019-11-17T12:44:58Z</time>
      </trkpt>
      <trkpt lat="43.75276" lon="3.96445">
        <ele>91.46</ele>
        <time>2019-11-17T12:45:13Z</time>
      </trkpt>
      <trkpt lat="43.75238" lon="3.96455">
        <ele>90.5</ele>
        <time>2019-11-17T12:45:25Z</time>
      </trkpt>
      <trkpt lat="43.75201" lon="3.96464">
        <ele>91.94</ele>
        <time>2019-11-17T12:45:36Z</time>
      </trkpt>
      <trkpt lat="43.75168" lon="3.96487">
        <ele>93.39</ele>
        <time>2019-11-17T12:45:48Z</time>
      </trkpt>
      <trkpt lat="43.75146" lon="3.96518">
        <ele>95.31</ele>
        <time>2019-11-17T12:46:00Z</time>
      </trkpt>
      <trkpt lat="43.75113" lon="3.96572">
        <ele>98.67</ele>
        <time>2019-11-17T12:46:17Z</time>
      </trkpt>
      <trkpt lat="43.75089" lon="3.96605">
        <ele>100.6</ele>
        <time>2019-11-17T12:46:30Z</time>
      </trkpt>
      <trkpt lat="43.75058" lon="3.96634">
        <ele>101.56</ele>
        <time>2019-11-17T12:46:43Z</time>
      </trkpt>
      <trkpt lat="43.7504" lon="3.96651">
        <ele>102.52</ele>
        <time>2019-11-17T12:46:52Z</time>
      </trkpt>
      <trkpt lat="43.75034" lon="3.96656">
        <ele>102.04</ele>
        <time>2019-11-17T12:46:55Z</time>
      </trkpt>
      <trkpt lat="43.75033" lon="3.96658">
        <ele>102.04</ele>
        <time>2019-11-17T12:46:56Z</time>
      </trkpt>
      <trkpt lat="43.75032" lon="3.96662">
        <ele>102.04</ele>
        <time>2019-11-17T12:46:57Z</time>
      </trkpt>
      <trkpt lat="43.75031" lon="3.96665">
        <ele>102.04</ele>
        <time>2019-11-17T12:46:58Z</time>
      </trkpt>
      <trkpt lat="43.75031" lon="3.9667">
        <ele>102.04</ele>
        <time>2019-11-17T12:46:59Z</time>
      </trkpt>
      <trkpt lat="43.75036" lon="3.96717">
        <ele>99.15</ele>
        <time>2019-11-17T12:47:09Z</time>
      </trkpt>
      <trkpt lat="43.75051" lon="3.96819">
        <ele>99.63</ele>
        <time>2019-11-17T12:47:26Z</time>
      </trkpt>
      <trkpt lat="43.75064" lon="3.96919">
        <ele>102.04</ele>
        <time>2019-11-17T12:47:43Z</time>
      </trkpt>
      <trkpt lat="43.75074" lon="3.96991">
        <ele>104.92</ele>
        <time>2019-11-17T12:47:59Z</time>
      </trkpt>
      <trkpt lat="43.75082" lon="3.97042">
        <ele>109.25</ele>
        <time>2019-11-17T12:48:14Z</time>
      </trkpt>
      <trkpt lat="43.75089" lon="3.97101">
        <ele>110.69</ele>
        <time>2019-11-17T12:48:30Z</time>
      </trkpt>
      <trkpt lat="43.75102" lon="3.97159">
        <ele>111.17</ele>
        <time>2019-11-17T12:48:47Z</time>
      </trkpt>
      <trkpt lat="43.75123" lon="3.97196">
        <ele>114.05</ele>
        <time>2019-11-17T12:49:01Z</time>
      </trkpt>
      <trkpt lat="43.75159" lon="3.97205">
        <ele>117.9</ele>
        <time>2019-11-17T12:49:17Z</time>
      </trkpt>
      <trkpt lat="43.75191" lon="3.97192">
        <ele>120.78</ele>
        <time>2019-11-17T12:49:32Z</time>
      </trkpt>
      <trkpt lat="43.75226" lon="3.97179">
        <ele>122.22</ele>
        <time>2019-11-17T12:49:46Z</time>
      </trkpt>
      <trkpt lat="43.75258" lon="3.9716">
        <ele>122.22</ele>
        <time>2019-11-17T12:50:00Z</time>
      </trkpt>
      <trkpt lat="43.7527" lon="3.9713">
        <ele>122.22</ele>
        <time>2019-11-17T12:50:12Z</time>
      </trkpt>
      <trkpt lat="43.75283" lon="3.97078">
        <ele>122.71</ele>
        <time>2019-11-17T12:50:28Z</time>
      </trkpt>
      <trkpt lat="43.75285" lon="3.97072">
        <ele>122.71</ele>
        <time>2019-11-17T12:50:30Z</time>
      </trkpt>
      <trkpt lat="43.75286" lon="3.9707">
        <ele>123.19</ele>
        <time>2019-11-17T12:50:31Z</time>
      </trkpt>
      <trkpt lat="43.75288" lon="3.97069">
        <ele>123.19</ele>
        <time>2019-11-17T12:50:32Z</time>
      </trkpt>
      <trkpt lat="43.7529" lon="3.97068">
        <ele>123.19</ele>
        <time>2019-11-17T12:50:33Z</time>
      </trkpt>
      <trkpt lat="43.75292" lon="3.97066">
        <ele>123.67</ele>
        <time>2019-11-17T12:50:34Z</time>
      </trkpt>
      <trkpt lat="43.75293" lon="3.97065">
        <ele>123.67</ele>
        <time>2019-11-17T12:50:35Z</time>
      </trkpt>
      <trkpt lat="43.75295" lon="3.97065">
        <ele>123.67</ele>
        <time>2019-11-17T12:50:36Z</time>
      </trkpt>
      <trkpt lat="43.75296" lon="3.97065">
        <ele>124.15</ele>
        <time>2019-11-17T12:50:37Z</time>
      </trkpt>
      <trkpt lat="43.75297" lon="3.97065">
        <ele>124.15</ele>
        <time>2019-11-17T12:50:38Z</time>
      </trkpt>
      <trkpt lat="43.75298" lon="3.97066">
        <ele>124.15</ele>
        <time>2019-11-17T12:50:39Z</time>
      </trkpt>
      <trkpt lat="43.753" lon="3.97066">
        <ele>124.15</ele>
        <time>2019-11-17T12:50:40Z</time>
      </trkpt>
      <trkpt lat="43.7531" lon="3.97067">
        <ele>125.11</ele>
        <time>2019-11-17T12:50:48Z</time>
      </trkpt>
      <trkpt lat="43.75311" lon="3.97067">
        <ele>125.59</ele>
        <time>2019-11-17T12:50:49Z</time>
      </trkpt>
      <trkpt lat="43.75334" lon="3.9706">
        <ele>132.32</ele>
        <time>2019-11-17T12:51:06Z</time>
      </trkpt>
      <trkpt lat="43.7534" lon="3.97059">
        <ele>133.28</ele>
        <time>2019-11-17T12:51:19Z</time>
      </trkpt>
      <trkpt lat="43.75345" lon="3.97056">
        <ele>135.2</ele>
        <time>2019-11-17T12:51:46Z</time>
      </trkpt>
      <trkpt lat="43.75346" lon="3.97052">
        <ele>133.28</ele>
        <time>2019-11-17T12:52:02Z</time>
      </trkpt>
      <trkpt lat="43.75348" lon="3.97049">
        <ele>132.8</ele>
        <time>2019-11-17T12:52:15Z</time>
      </trkpt>
      <trkpt lat="43.75358" lon="3.9704">
        <ele>133.28</ele>
        <time>2019-11-17T12:52:32Z</time>
      </trkpt>
      <trkpt lat="43.75364" lon="3.97026">
        <ele>131.84</ele>
        <time>2019-11-17T12:52:45Z</time>
      </trkpt>
      <trkpt lat="43.75371" lon="3.9702">
        <ele>130.4</ele>
        <time>2019-11-17T12:52:56Z</time>
      </trkpt>
      <trkpt lat="43.75397" lon="3.97017">
        <ele>130.4</ele>
        <time>2019-11-17T12:53:12Z</time>
      </trkpt>
      <trkpt lat="43.75427" lon="3.97013">
        <ele>133.28</ele>
        <time>2019-11-17T12:53:28Z</time>
      </trkpt>
      <trkpt lat="43.75431" lon="3.97023">
        <ele>134.72</ele>
        <time>2019-11-17T12:53:39Z</time>
      </trkpt>
      <trkpt lat="43.75424" lon="3.9703">
        <ele>135.2</ele>
        <time>2019-11-17T12:53:53Z</time>
      </trkpt>
      <trkpt lat="43.75413" lon="3.97032">
        <ele>133.76</ele>
        <time>2019-11-17T12:54:09Z</time>
      </trkpt>
      <trkpt lat="43.75411" lon="3.97036">
        <ele>135.68</ele>
        <time>2019-11-17T12:54:21Z</time>
      </trkpt>
      <trkpt lat="43.75402" lon="3.97044">
        <ele>138.57</ele>
        <time>2019-11-17T12:54:33Z</time>
      </trkpt>
      <trkpt lat="43.75396" lon="3.97054">
        <ele>140.49</ele>
        <time>2019-11-17T12:54:48Z</time>
      </trkpt>
      <trkpt lat="43.75388" lon="3.97052">
        <ele>141.45</ele>
        <time>2019-11-17T12:55:02Z</time>
      </trkpt>
      <trkpt lat="43.75382" lon="3.97061">
        <ele>139.53</ele>
        <time>2019-11-17T12:55:16Z</time>
      </trkpt>
      <trkpt lat="43.75382" lon="3.97066">
        <ele>139.05</ele>
        <time>2019-11-17T12:55:20Z</time>
      </trkpt>
      <trkpt lat="43.75382" lon="3.97075">
        <ele>139.05</ele>
        <time>2019-11-17T12:55:27Z</time>
      </trkpt>
      <trkpt lat="43.75382" lon="3.9708">
        <ele>139.05</ele>
        <time>2019-11-17T12:55:30Z</time>
      </trkpt>
      <trkpt lat="43.75385" lon="3.9709">
        <ele>139.53</ele>
        <time>2019-11-17T12:55:37Z</time>
      </trkpt>
      <trkpt lat="43.75391" lon="3.97096">
        <ele>140.97</ele>
        <time>2019-11-17T12:55:52Z</time>
      </trkpt>
      <trkpt lat="43.75391" lon="3.97098">
        <ele>143.37</ele>
        <time>2019-11-17T12:56:05Z</time>
      </trkpt>
      <trkpt lat="43.75389" lon="3.97102">
        <ele>142.89</ele>
        <time>2019-11-17T12:56:09Z</time>
      </trkpt>
      <trkpt lat="43.7539" lon="3.97106">
        <ele>142.89</ele>
        <time>2019-11-17T12:56:12Z</time>
      </trkpt>
      <trkpt lat="43.75391" lon="3.97108">
        <ele>142.41</ele>
        <time>2019-11-17T12:56:14Z</time>
      </trkpt>
      <trkpt lat="43.75404" lon="3.97119">
        <ele>140.49</ele>
        <time>2019-11-17T12:56:32Z</time>
      </trkpt>
      <trkpt lat="43.75418" lon="3.97116">
        <ele>139.05</ele>
        <time>2019-11-17T12:56:48Z</time>
      </trkpt>
      <trkpt lat="43.75426" lon="3.97108">
        <ele>138.57</ele>
        <time>2019-11-17T12:57:05Z</time>
      </trkpt>
      <trkpt lat="43.75425" lon="3.9709">
        <ele>137.13</ele>
        <time>2019-11-17T12:57:20Z</time>
      </trkpt>
      <trkpt lat="43.75424" lon="3.97082">
        <ele>138.09</ele>
        <time>2019-11-17T12:57:33Z</time>
      </trkpt>
      <trkpt lat="43.75426" lon="3.97068">
        <ele>137.13</ele>
        <time>2019-11-17T12:57:48Z</time>
      </trkpt>
      <trkpt lat="43.75427" lon="3.97069">
        <ele>137.13</ele>
        <time>2019-11-17T12:57:55Z</time>
      </trkpt>
      <trkpt lat="43.75421" lon="3.97064">
        <ele>137.61</ele>
        <time>2019-11-17T12:58:05Z</time>
      </trkpt>
      <trkpt lat="43.75418" lon="3.97044">
        <ele>136.16</ele>
        <time>2019-11-17T12:58:20Z</time>
      </trkpt>
      <trkpt lat="43.75422" lon="3.97043">
        <ele>136.16</ele>
        <time>2019-11-17T12:58:33Z</time>
      </trkpt>
      <trkpt lat="43.75424" lon="3.97046">
        <ele>133.76</ele>
        <time>2019-11-17T12:58:45Z</time>
      </trkpt>
      <trkpt lat="43.75424" lon="3.97043">
        <ele>129.43</ele>
        <time>2019-11-17T12:59:07Z</time>
      </trkpt>
      <trkpt lat="43.75417" lon="3.97043">
        <ele>133.76</ele>
        <time>2019-11-17T12:59:19Z</time>
      </trkpt>
      <trkpt lat="43.75414" lon="3.97028">
        <ele>134.24</ele>
        <time>2019-11-17T12:59:33Z</time>
      </trkpt>
      <trkpt lat="43.75412" lon="3.97021">
        <ele>133.76</ele>
        <time>2019-11-17T12:59:48Z</time>
      </trkpt>
      <trkpt lat="43.75409" lon="3.9702">
        <ele>136.16</ele>
        <time>2019-11-17T13:00:07Z</time>
      </trkpt>
      <trkpt lat="43.75412" lon="3.9703">
        <ele>136.16</ele>
        <time>2019-11-17T13:00:21Z</time>
      </trkpt>
      <trkpt lat="43.7541" lon="3.97031">
        <ele>135.68</ele>
        <time>2019-11-17T13:00:26Z</time>
      </trkpt>
      <trkpt lat="43.75415" lon="3.97039">
        <ele>135.68</ele>
        <time>2019-11-17T13:00:33Z</time>
      </trkpt>
      <trkpt lat="43.75418" lon="3.97032">
        <ele>136.16</ele>
        <time>2019-11-17T13:00:38Z</time>
      </trkpt>
      <trkpt lat="43.75427" lon="3.97027">
        <ele>137.13</ele>
        <time>2019-11-17T13:00:45Z</time>
      </trkpt>
      <trkpt lat="43.75429" lon="3.97016">
        <ele>135.2</ele>
        <time>2019-11-17T13:00:50Z</time>
      </trkpt>
      <trkpt lat="43.75427" lon="3.97014">
        <ele>135.2</ele>
        <time>2019-11-17T13:00:51Z</time>
      </trkpt>
      <trkpt lat="43.75425" lon="3.97013">
        <ele>134.72</ele>
        <time>2019-11-17T13:00:52Z</time>
      </trkpt>
      <trkpt lat="43.75422" lon="3.97012">
        <ele>134.72</ele>
        <time>2019-11-17T13:00:53Z</time>
      </trkpt>
      <trkpt lat="43.7542" lon="3.97013">
        <ele>134.24</ele>
        <time>2019-11-17T13:00:54Z</time>
      </trkpt>
      <trkpt lat="43.75418" lon="3.97013">
        <ele>133.76</ele>
        <time>2019-11-17T13:00:55Z</time>
      </trkpt>
      <trkpt lat="43.75416" lon="3.97013">
        <ele>133.28</ele>
        <time>2019-11-17T13:00:56Z</time>
      </trkpt>
      <trkpt lat="43.75415" lon="3.97014">
        <ele>132.8</ele>
        <time>2019-11-17T13:00:57Z</time>
      </trkpt>
      <trkpt lat="43.75385" lon="3.97018">
        <ele>128.47</ele>
        <time>2019-11-17T13:01:12Z</time>
      </trkpt>
      <trkpt lat="43.75364" lon="3.97038">
        <ele>126.55</ele>
        <time>2019-11-17T13:01:21Z</time>
      </trkpt>
      <trkpt lat="43.75352" lon="3.97048">
        <ele>125.11</ele>
        <time>2019-11-17T13:01:30Z</time>
      </trkpt>
      <trkpt lat="43.7535" lon="3.97052">
        <ele>126.07</ele>
        <time>2019-11-17T13:01:42Z</time>
      </trkpt>
      <trkpt lat="43.75346" lon="3.97054">
        <ele>126.07</ele>
        <time>2019-11-17T13:01:47Z</time>
      </trkpt>
      <trkpt lat="43.75345" lon="3.97055">
        <ele>126.07</ele>
        <time>2019-11-17T13:01:48Z</time>
      </trkpt>
      <trkpt lat="43.75333" lon="3.97062">
        <ele>125.11</ele>
        <time>2019-11-17T13:01:54Z</time>
      </trkpt>
      <trkpt lat="43.75331" lon="3.97062">
        <ele>126.07</ele>
        <time>2019-11-17T13:01:55Z</time>
      </trkpt>
      <trkpt lat="43.75329" lon="3.97062">
        <ele>126.07</ele>
        <time>2019-11-17T13:01:56Z</time>
      </trkpt>
      <trkpt lat="43.75327" lon="3.97062">
        <ele>126.07</ele>
        <time>2019-11-17T13:01:57Z</time>
      </trkpt>
      <trkpt lat="43.75325" lon="3.97061">
        <ele>126.07</ele>
        <time>2019-11-17T13:01:58Z</time>
      </trkpt>
      <trkpt lat="43.75297" lon="3.97062">
        <ele>125.11</ele>
        <time>2019-11-17T13:02:10Z</time>
      </trkpt>
      <trkpt lat="43.7529" lon="3.97062">
        <ele>124.63</ele>
        <time>2019-11-17T13:02:13Z</time>
      </trkpt>
      <trkpt lat="43.75289" lon="3.97065">
        <ele>124.63</ele>
        <time>2019-11-17T13:02:14Z</time>
      </trkpt>
      <trkpt lat="43.75289" lon="3.97067">
        <ele>124.15</ele>
        <time>2019-11-17T13:02:15Z</time>
      </trkpt>
      <trkpt lat="43.75288" lon="3.9707">
        <ele>124.15</ele>
        <time>2019-11-17T13:02:16Z</time>
      </trkpt>
      <trkpt lat="43.75288" lon="3.97073">
        <ele>124.15</ele>
        <time>2019-11-17T13:02:17Z</time>
      </trkpt>
      <trkpt lat="43.7528" lon="3.97116">
        <ele>125.11</ele>
        <time>2019-11-17T13:02:27Z</time>
      </trkpt>
      <trkpt lat="43.75272" lon="3.97141">
        <ele>124.63</ele>
        <time>2019-11-17T13:02:32Z</time>
      </trkpt>
      <trkpt lat="43.7527" lon="3.97145">
        <ele>124.63</ele>
        <time>2019-11-17T13:02:33Z</time>
      </trkpt>
      <trkpt lat="43.75266" lon="3.97148">
        <ele>124.63</ele>
        <time>2019-11-17T13:02:34Z</time>
      </trkpt>
      <trkpt lat="43.75253" lon="3.97158">
        <ele>123.67</ele>
        <time>2019-11-17T13:02:37Z</time>
      </trkpt>
      <trkpt lat="43.75248" lon="3.97161">
        <ele>123.67</ele>
        <time>2019-11-17T13:02:38Z</time>
      </trkpt>
      <trkpt lat="43.7518" lon="3.97189">
        <ele>120.78</ele>
        <time>2019-11-17T13:02:51Z</time>
      </trkpt>
      <trkpt lat="43.75156" lon="3.97198">
        <ele>119.34</ele>
        <time>2019-11-17T13:02:55Z</time>
      </trkpt>
      <trkpt lat="43.75151" lon="3.97198">
        <ele>118.86</ele>
        <time>2019-11-17T13:02:56Z</time>
      </trkpt>
      <trkpt lat="43.75147" lon="3.97198">
        <ele>118.38</ele>
        <time>2019-11-17T13:02:57Z</time>
      </trkpt>
      <trkpt lat="43.75142" lon="3.97197">
        <ele>117.9</ele>
        <time>2019-11-17T13:02:58Z</time>
      </trkpt>
      <trkpt lat="43.75139" lon="3.97196">
        <ele>117.9</ele>
        <time>2019-11-17T13:02:59Z</time>
      </trkpt>
      <trkpt lat="43.75135" lon="3.97194">
        <ele>117.42</ele>
        <time>2019-11-17T13:03:00Z</time>
      </trkpt>
      <trkpt lat="43.75126" lon="3.97189">
        <ele>116.46</ele>
        <time>2019-11-17T13:03:03Z</time>
      </trkpt>
      <trkpt lat="43.75124" lon="3.9719">
        <ele>115.98</ele>
        <time>2019-11-17T13:03:04Z</time>
      </trkpt>
      <trkpt lat="43.75122" lon="3.97192">
        <ele>115.5</ele>
        <time>2019-11-17T13:03:05Z</time>
      </trkpt>
      <trkpt lat="43.75121" lon="3.97195">
        <ele>115.01</ele>
        <time>2019-11-17T13:03:06Z</time>
      </trkpt>
      <trkpt lat="43.75121" lon="3.97198">
        <ele>114.53</ele>
        <time>2019-11-17T13:03:07Z</time>
      </trkpt>
      <trkpt lat="43.75122" lon="3.97201">
        <ele>114.05</ele>
        <time>2019-11-17T13:03:08Z</time>
      </trkpt>
      <trkpt lat="43.75124" lon="3.97204">
        <ele>114.05</ele>
        <time>2019-11-17T13:03:09Z</time>
      </trkpt>
      <trkpt lat="43.75161" lon="3.97257">
        <ele>111.17</ele>
        <time>2019-11-17T13:03:23Z</time>
      </trkpt>
      <trkpt lat="43.75165" lon="3.97261">
        <ele>110.69</ele>
        <time>2019-11-17T13:03:24Z</time>
      </trkpt>
      <trkpt lat="43.75175" lon="3.97273">
        <ele>109.73</ele>
        <time>2019-11-17T13:03:26Z</time>
      </trkpt>
      <trkpt lat="43.75204" lon="3.9732">
        <ele>107.81</ele>
        <time>2019-11-17T13:03:32Z</time>
      </trkpt>
      <trkpt lat="43.75248" lon="3.97454">
        <ele>102.04</ele>
        <time>2019-11-17T13:03:44Z</time>
      </trkpt>
      <trkpt lat="43.75248" lon="3.97467">
        <ele>101.56</ele>
        <time>2019-11-17T13:03:45Z</time>
      </trkpt>
      <trkpt lat="43.75248" lon="3.9748">
        <ele>101.08</ele>
        <time>2019-11-17T13:03:46Z</time>
      </trkpt>
      <trkpt lat="43.75246" lon="3.97493">
        <ele>100.6</ele>
        <time>2019-11-17T13:03:47Z</time>
      </trkpt>
      <trkpt lat="43.75243" lon="3.97506">
        <ele>99.63</ele>
        <time>2019-11-17T13:03:48Z</time>
      </trkpt>
      <trkpt lat="43.75223" lon="3.97605">
        <ele>96.27</ele>
        <time>2019-11-17T13:03:57Z</time>
      </trkpt>
      <trkpt lat="43.75223" lon="3.97625">
        <ele>95.79</ele>
        <time>2019-11-17T13:03:59Z</time>
      </trkpt>
      <trkpt lat="43.75224" lon="3.97634">
        <ele>95.79</ele>
        <time>2019-11-17T13:04:00Z</time>
      </trkpt>
      <trkpt lat="43.75225" lon="3.97644">
        <ele>95.31</ele>
        <time>2019-11-17T13:04:01Z</time>
      </trkpt>
      <trkpt lat="43.75247" lon="3.97781">
        <ele>91.46</ele>
        <time>2019-11-17T13:04:16Z</time>
      </trkpt>
      <trkpt lat="43.7526" lon="3.97909">
        <ele>88.58</ele>
        <time>2019-11-17T13:04:30Z</time>
      </trkpt>
      <trkpt lat="43.75256" lon="3.98035">
        <ele>85.69</ele>
        <time>2019-11-17T13:04:45Z</time>
      </trkpt>
      <trkpt lat="43.75257" lon="3.98046">
        <ele>85.69</ele>
        <time>2019-11-17T13:04:46Z</time>
      </trkpt>
      <trkpt lat="43.75258" lon="3.98052">
        <ele>85.21</ele>
        <time>2019-11-17T13:04:47Z</time>
      </trkpt>
      <trkpt lat="43.75261" lon="3.98061">
        <ele>85.21</ele>
        <time>2019-11-17T13:04:48Z</time>
      </trkpt>
      <trkpt lat="43.75266" lon="3.98069">
        <ele>84.73</ele>
        <time>2019-11-17T13:04:49Z</time>
      </trkpt>
      <trkpt lat="43.7527" lon="3.98078">
        <ele>84.25</ele>
        <time>2019-11-17T13:04:50Z</time>
      </trkpt>
      <trkpt lat="43.75322" lon="3.98178">
        <ele>78.48</ele>
        <time>2019-11-17T13:05:01Z</time>
      </trkpt>
      <trkpt lat="43.75365" lon="3.98283">
        <ele>77.04</ele>
        <time>2019-11-17T13:05:13Z</time>
      </trkpt>
      <trkpt lat="43.75389" lon="3.9833">
        <ele>78</ele>
        <time>2019-11-17T13:05:21Z</time>
      </trkpt>
      <trkpt lat="43.75391" lon="3.98336">
        <ele>78</ele>
        <time>2019-11-17T13:05:22Z</time>
      </trkpt>
      <trkpt lat="43.75393" lon="3.98342">
        <ele>78.48</ele>
        <time>2019-11-17T13:05:23Z</time>
      </trkpt>
      <trkpt lat="43.75395" lon="3.98349">
        <ele>78.48</ele>
        <time>2019-11-17T13:05:24Z</time>
      </trkpt>
      <trkpt lat="43.75396" lon="3.98355">
        <ele>78.48</ele>
        <time>2019-11-17T13:05:25Z</time>
      </trkpt>
      <trkpt lat="43.75397" lon="3.98362">
        <ele>78.48</ele>
        <time>2019-11-17T13:05:26Z</time>
      </trkpt>
      <trkpt lat="43.75403" lon="3.98464">
        <ele>80.41</ele>
        <time>2019-11-17T13:05:42Z</time>
      </trkpt>
      <trkpt lat="43.75408" lon="3.98595">
        <ele>77.52</ele>
        <time>2019-11-17T13:05:58Z</time>
      </trkpt>
      <trkpt lat="43.75414" lon="3.98728">
        <ele>69.83</ele>
        <time>2019-11-17T13:06:09Z</time>
      </trkpt>
      <trkpt lat="43.75417" lon="3.98871">
        <ele>65.03</ele>
        <time>2019-11-17T13:06:19Z</time>
      </trkpt>
      <trkpt lat="43.75425" lon="3.99026">
        <ele>63.58</ele>
        <time>2019-11-17T13:06:32Z</time>
      </trkpt>
      <trkpt lat="43.75412" lon="3.99164">
        <ele>62.14</ele>
        <time>2019-11-17T13:06:46Z</time>
      </trkpt>
      <trkpt lat="43.75409" lon="3.99191">
        <ele>61.18</ele>
        <time>2019-11-17T13:06:49Z</time>
      </trkpt>
      <trkpt lat="43.75417" lon="3.9931">
        <ele>60.22</ele>
        <time>2019-11-17T13:07:03Z</time>
      </trkpt>
      <trkpt lat="43.75417" lon="3.99323">
        <ele>61.18</ele>
        <time>2019-11-17T13:07:05Z</time>
      </trkpt>
      <trkpt lat="43.75419" lon="3.99392">
        <ele>63.1</ele>
        <time>2019-11-17T13:07:19Z</time>
      </trkpt>
      <trkpt lat="43.7542" lon="3.99476">
        <ele>63.1</ele>
        <time>2019-11-17T13:07:34Z</time>
      </trkpt>
      <trkpt lat="43.75418" lon="3.99586">
        <ele>56.86</ele>
        <time>2019-11-17T13:07:47Z</time>
      </trkpt>
      <trkpt lat="43.75414" lon="3.99748">
        <ele>51.57</ele>
        <time>2019-11-17T13:08:02Z</time>
      </trkpt>
      <trkpt lat="43.75406" lon="3.99884">
        <ele>51.09</ele>
        <time>2019-11-17T13:08:17Z</time>
      </trkpt>
      <trkpt lat="43.75404" lon="3.999">
        <ele>51.09</ele>
        <time>2019-11-17T13:08:19Z</time>
      </trkpt>
      <trkpt lat="43.75402" lon="3.99907">
        <ele>51.09</ele>
        <time>2019-11-17T13:08:20Z</time>
      </trkpt>
      <trkpt lat="43.75399" lon="3.99914">
        <ele>50.61</ele>
        <time>2019-11-17T13:08:21Z</time>
      </trkpt>
      <trkpt lat="43.75395" lon="3.99918">
        <ele>50.61</ele>
        <time>2019-11-17T13:08:22Z</time>
      </trkpt>
      <trkpt lat="43.7539" lon="3.99922">
        <ele>50.61</ele>
        <time>2019-11-17T13:08:23Z</time>
      </trkpt>
      <trkpt lat="43.75382" lon="3.99929">
        <ele>50.61</ele>
        <time>2019-11-17T13:08:25Z</time>
      </trkpt>
      <trkpt lat="43.75379" lon="3.99934">
        <ele>50.61</ele>
        <time>2019-11-17T13:08:26Z</time>
      </trkpt>
      <trkpt lat="43.75376" lon="3.99939">
        <ele>50.61</ele>
        <time>2019-11-17T13:08:27Z</time>
      </trkpt>
      <trkpt lat="43.75374" lon="3.99944">
        <ele>50.61</ele>
        <time>2019-11-17T13:08:28Z</time>
      </trkpt>
      <trkpt lat="43.75373" lon="3.99949">
        <ele>50.61</ele>
        <time>2019-11-17T13:08:29Z</time>
      </trkpt>
      <trkpt lat="43.75372" lon="3.99954">
        <ele>50.61</ele>
        <time>2019-11-17T13:08:30Z</time>
      </trkpt>
      <trkpt lat="43.75367" lon="3.99975">
        <ele>50.61</ele>
        <time>2019-11-17T13:08:34Z</time>
      </trkpt>
      <trkpt lat="43.75367" lon="4.00008">
        <ele>50.61</ele>
        <time>2019-11-17T13:08:40Z</time>
      </trkpt>
      <trkpt lat="43.75381" lon="4.00043">
        <ele>51.57</ele>
        <time>2019-11-17T13:08:47Z</time>
      </trkpt>
      <trkpt lat="43.75383" lon="4.00048">
        <ele>51.57</ele>
        <time>2019-11-17T13:08:48Z</time>
      </trkpt>
      <trkpt lat="43.75401" lon="4.00096">
        <ele>53.01</ele>
        <time>2019-11-17T13:08:57Z</time>
      </trkpt>
      <trkpt lat="43.75402" lon="4.00102">
        <ele>53.01</ele>
        <time>2019-11-17T13:08:58Z</time>
      </trkpt>
      <trkpt lat="43.75402" lon="4.00108">
        <ele>53.01</ele>
        <time>2019-11-17T13:08:59Z</time>
      </trkpt>
      <trkpt lat="43.75402" lon="4.00115">
        <ele>53.01</ele>
        <time>2019-11-17T13:09:00Z</time>
      </trkpt>
      <trkpt lat="43.75402" lon="4.00121">
        <ele>53.01</ele>
        <time>2019-11-17T13:09:01Z</time>
      </trkpt>
      <trkpt lat="43.75401" lon="4.00127">
        <ele>53.01</ele>
        <time>2019-11-17T13:09:02Z</time>
      </trkpt>
      <trkpt lat="43.754" lon="4.00133">
        <ele>53.01</ele>
        <time>2019-11-17T13:09:03Z</time>
      </trkpt>
      <trkpt lat="43.75398" lon="4.00138">
        <ele>53.01</ele>
        <time>2019-11-17T13:09:04Z</time>
      </trkpt>
      <trkpt lat="43.75389" lon="4.00194">
        <ele>55.41</ele>
        <time>2019-11-17T13:09:14Z</time>
      </trkpt>
      <trkpt lat="43.75376" lon="4.00301">
        <ele>53.01</ele>
        <time>2019-11-17T13:09:30Z</time>
      </trkpt>
      <trkpt lat="43.75368" lon="4.00369">
        <ele>53.01</ele>
        <time>2019-11-17T13:09:42Z</time>
      </trkpt>
      <trkpt lat="43.75357" lon="4.00408">
        <ele>52.05</ele>
        <time>2019-11-17T13:09:52Z</time>
      </trkpt>
      <trkpt lat="43.75327" lon="4.00455">
        <ele>51.09</ele>
        <time>2019-11-17T13:10:02Z</time>
      </trkpt>
      <trkpt lat="43.75273" lon="4.00546">
        <ele>50.13</ele>
        <time>2019-11-17T13:10:16Z</time>
      </trkpt>
      <trkpt lat="43.75267" lon="4.00558">
        <ele>49.65</ele>
        <time>2019-11-17T13:10:18Z</time>
      </trkpt>
      <trkpt lat="43.75265" lon="4.00565">
        <ele>49.65</ele>
        <time>2019-11-17T13:10:19Z</time>
      </trkpt>
      <trkpt lat="43.75265" lon="4.00572">
        <ele>49.65</ele>
        <time>2019-11-17T13:10:20Z</time>
      </trkpt>
      <trkpt lat="43.75265" lon="4.00578">
        <ele>49.65</ele>
        <time>2019-11-17T13:10:21Z</time>
      </trkpt>
      <trkpt lat="43.75266" lon="4.00585">
        <ele>49.65</ele>
        <time>2019-11-17T13:10:22Z</time>
      </trkpt>
      <trkpt lat="43.75266" lon="4.00591">
        <ele>49.65</ele>
        <time>2019-11-17T13:10:23Z</time>
      </trkpt>
      <trkpt lat="43.75266" lon="4.00598">
        <ele>49.16</ele>
        <time>2019-11-17T13:10:24Z</time>
      </trkpt>
      <trkpt lat="43.75266" lon="4.00604">
        <ele>49.16</ele>
        <time>2019-11-17T13:10:25Z</time>
      </trkpt>
      <trkpt lat="43.75264" lon="4.0061">
        <ele>49.16</ele>
        <time>2019-11-17T13:10:26Z</time>
      </trkpt>
      <trkpt lat="43.75262" lon="4.00616">
        <ele>48.68</ele>
        <time>2019-11-17T13:10:27Z</time>
      </trkpt>
      <trkpt lat="43.7526" lon="4.00621">
        <ele>48.68</ele>
        <time>2019-11-17T13:10:28Z</time>
      </trkpt>
      <trkpt lat="43.75243" lon="4.00658">
        <ele>49.16</ele>
        <time>2019-11-17T13:10:35Z</time>
      </trkpt>
      <trkpt lat="43.75203" lon="4.00747">
        <ele>52.05</ele>
        <time>2019-11-17T13:10:51Z</time>
      </trkpt>
      <trkpt lat="43.75177" lon="4.00832">
        <ele>52.53</ele>
        <time>2019-11-17T13:11:06Z</time>
      </trkpt>
      <trkpt lat="43.75175" lon="4.00837">
        <ele>52.53</ele>
        <time>2019-11-17T13:11:07Z</time>
      </trkpt>
      <trkpt lat="43.75174" lon="4.00843">
        <ele>52.53</ele>
        <time>2019-11-17T13:11:08Z</time>
      </trkpt>
      <trkpt lat="43.75173" lon="4.00849">
        <ele>53.01</ele>
        <time>2019-11-17T13:11:09Z</time>
      </trkpt>
      <trkpt lat="43.75171" lon="4.00854">
        <ele>53.49</ele>
        <time>2019-11-17T13:11:10Z</time>
      </trkpt>
      <trkpt lat="43.75149" lon="4.00934">
        <ele>55.41</ele>
        <time>2019-11-17T13:11:25Z</time>
      </trkpt>
      <trkpt lat="43.75132" lon="4.00991">
        <ele>55.41</ele>
        <time>2019-11-17T13:11:37Z</time>
      </trkpt>
      <trkpt lat="43.7513" lon="4.01014">
        <ele>56.86</ele>
        <time>2019-11-17T13:11:43Z</time>
      </trkpt>
      <trkpt lat="43.75136" lon="4.01024">
        <ele>56.86</ele>
        <time>2019-11-17T13:11:56Z</time>
      </trkpt>
      <trkpt lat="43.75136" lon="4.01024">
        <ele>56.86</ele>
        <time>2019-11-17T13:12:22Z</time>
      </trkpt>
      <trkpt lat="43.75135" lon="4.01026">
        <ele>56.37</ele>
        <time>2019-11-17T13:12:35Z</time>
      </trkpt>
      <trkpt lat="43.75134" lon="4.01028">
        <ele>56.37</ele>
        <time>2019-11-17T13:12:36Z</time>
      </trkpt>
      <trkpt lat="43.75133" lon="4.0103">
        <ele>56.37</ele>
        <time>2019-11-17T13:12:37Z</time>
      </trkpt>
      <trkpt lat="43.75132" lon="4.01032">
        <ele>56.37</ele>
        <time>2019-11-17T13:12:38Z</time>
      </trkpt>
      <trkpt lat="43.75131" lon="4.01035">
        <ele>56.86</ele>
        <time>2019-11-17T13:12:39Z</time>
      </trkpt>
      <trkpt lat="43.75114" lon="4.01082">
        <ele>57.82</ele>
        <time>2019-11-17T13:12:50Z</time>
      </trkpt>
      <trkpt lat="43.75085" lon="4.01164">
        <ele>59.26</ele>
        <time>2019-11-17T13:13:05Z</time>
      </trkpt>
      <trkpt lat="43.75059" lon="4.0124">
        <ele>59.74</ele>
        <time>2019-11-17T13:13:17Z</time>
      </trkpt>
      <trkpt lat="43.75026" lon="4.01327">
        <ele>59.26</ele>
        <time>2019-11-17T13:13:32Z</time>
      </trkpt>
      <trkpt lat="43.74993" lon="4.01415">
        <ele>59.26</ele>
        <time>2019-11-17T13:13:47Z</time>
      </trkpt>
      <trkpt lat="43.74966" lon="4.01498">
        <ele>58.78</ele>
        <time>2019-11-17T13:14:01Z</time>
      </trkpt>
      <trkpt lat="43.74964" lon="4.01503">
        <ele>58.78</ele>
        <time>2019-11-17T13:14:02Z</time>
      </trkpt>
      <trkpt lat="43.74948" lon="4.01548">
        <ele>58.3</ele>
        <time>2019-11-17T13:14:10Z</time>
      </trkpt>
      <trkpt lat="43.74946" lon="4.01553">
        <ele>58.3</ele>
        <time>2019-11-17T13:14:11Z</time>
      </trkpt>
      <trkpt lat="43.74936" lon="4.0158">
        <ele>58.78</ele>
        <time>2019-11-17T13:14:16Z</time>
      </trkpt>
      <trkpt lat="43.74935" lon="4.01585">
        <ele>58.78</ele>
        <time>2019-11-17T13:14:17Z</time>
      </trkpt>
      <trkpt lat="43.74937" lon="4.0159">
        <ele>58.78</ele>
        <time>2019-11-17T13:14:18Z</time>
      </trkpt>
      <trkpt lat="43.7494" lon="4.01593">
        <ele>58.78</ele>
        <time>2019-11-17T13:14:19Z</time>
      </trkpt>
      <trkpt lat="43.74944" lon="4.01594">
        <ele>58.78</ele>
        <time>2019-11-17T13:14:20Z</time>
      </trkpt>
      <trkpt lat="43.74947" lon="4.01594">
        <ele>58.78</ele>
        <time>2019-11-17T13:14:21Z</time>
      </trkpt>
      <trkpt lat="43.74951" lon="4.01594">
        <ele>59.26</ele>
        <time>2019-11-17T13:14:22Z</time>
      </trkpt>
      <trkpt lat="43.75" lon="4.01581">
        <ele>60.7</ele>
        <time>2019-11-17T13:14:34Z</time>
      </trkpt>
      <trkpt lat="43.75091" lon="4.01555">
        <ele>59.74</ele>
        <time>2019-11-17T13:14:53Z</time>
      </trkpt>
      <trkpt lat="43.75179" lon="4.01529">
        <ele>59.26</ele>
        <time>2019-11-17T13:15:09Z</time>
      </trkpt>
      <trkpt lat="43.75276" lon="4.01499">
        <ele>59.26</ele>
        <time>2019-11-17T13:15:29Z</time>
      </trkpt>
      <trkpt lat="43.75347" lon="4.01476">
        <ele>60.7</ele>
        <time>2019-11-17T13:15:48Z</time>
      </trkpt>
      <trkpt lat="43.75418" lon="4.01455">
        <ele>63.1</ele>
        <time>2019-11-17T13:16:09Z</time>
      </trkpt>
      <trkpt lat="43.75475" lon="4.01437">
        <ele>67.43</ele>
        <time>2019-11-17T13:16:28Z</time>
      </trkpt>
      <trkpt lat="43.7553" lon="4.0142">
        <ele>71.76</ele>
        <time>2019-11-17T13:16:51Z</time>
      </trkpt>
      <trkpt lat="43.75559" lon="4.01411">
        <ele>76.08</ele>
        <time>2019-11-17T13:17:05Z</time>
      </trkpt>
      <trkpt lat="43.75584" lon="4.01403">
        <ele>79.45</ele>
        <time>2019-11-17T13:17:20Z</time>
      </trkpt>
      <trkpt lat="43.75588" lon="4.01401">
        <ele>79.93</ele>
        <time>2019-11-17T13:17:22Z</time>
      </trkpt>
      <trkpt lat="43.7559" lon="4.014">
        <ele>79.93</ele>
        <time>2019-11-17T13:17:23Z</time>
      </trkpt>
      <trkpt lat="43.75592" lon="4.014">
        <ele>80.41</ele>
        <time>2019-11-17T13:17:24Z</time>
      </trkpt>
      <trkpt lat="43.75598" lon="4.01398">
        <ele>80.89</ele>
        <time>2019-11-17T13:17:27Z</time>
      </trkpt>
      <trkpt lat="43.75599" lon="4.01396">
        <ele>81.37</ele>
        <time>2019-11-17T13:17:28Z</time>
      </trkpt>
      <trkpt lat="43.756" lon="4.01394">
        <ele>81.37</ele>
        <time>2019-11-17T13:17:29Z</time>
      </trkpt>
      <trkpt lat="43.75601" lon="4.01391">
        <ele>81.37</ele>
        <time>2019-11-17T13:17:30Z</time>
      </trkpt>
      <trkpt lat="43.756" lon="4.01389">
        <ele>81.37</ele>
        <time>2019-11-17T13:17:31Z</time>
      </trkpt>
      <trkpt lat="43.756" lon="4.01386">
        <ele>81.37</ele>
        <time>2019-11-17T13:17:32Z</time>
      </trkpt>
      <trkpt lat="43.75599" lon="4.01384">
        <ele>81.37</ele>
        <time>2019-11-17T13:17:33Z</time>
      </trkpt>
      <trkpt lat="43.75597" lon="4.01382">
        <ele>80.89</ele>
        <time>2019-11-17T13:17:34Z</time>
      </trkpt>
      <trkpt lat="43.75584" lon="4.01347">
        <ele>77.04</ele>
        <time>2019-11-17T13:17:49Z</time>
      </trkpt>
      <trkpt lat="43.75584" lon="4.01343">
        <ele>77.04</ele>
        <time>2019-11-17T13:17:50Z</time>
      </trkpt>
      <trkpt lat="43.75584" lon="4.0134">
        <ele>77.04</ele>
        <time>2019-11-17T13:17:51Z</time>
      </trkpt>
      <trkpt lat="43.75585" lon="4.01337">
        <ele>77.52</ele>
        <time>2019-11-17T13:17:52Z</time>
      </trkpt>
      <trkpt lat="43.75586" lon="4.01334">
        <ele>77.52</ele>
        <time>2019-11-17T13:17:53Z</time>
      </trkpt>
      <trkpt lat="43.75587" lon="4.01331">
        <ele>78</ele>
        <time>2019-11-17T13:17:54Z</time>
      </trkpt>
      <trkpt lat="43.75603" lon="4.01301">
        <ele>78</ele>
        <time>2019-11-17T13:18:06Z</time>
      </trkpt>
      <trkpt lat="43.75622" lon="4.01276">
        <ele>74.64</ele>
        <time>2019-11-17T13:18:16Z</time>
      </trkpt>
      <trkpt lat="43.75627" lon="4.01273">
        <ele>73.2</ele>
        <time>2019-11-17T13:18:20Z</time>
      </trkpt>
      <trkpt lat="43.75629" lon="4.01274">
        <ele>72.72</ele>
        <time>2019-11-17T13:18:21Z</time>
      </trkpt>
      <trkpt lat="43.75631" lon="4.01275">
        <ele>72.24</ele>
        <time>2019-11-17T13:18:22Z</time>
      </trkpt>
      <trkpt lat="43.75671" lon="4.01291">
        <ele>69.35</ele>
        <time>2019-11-17T13:18:35Z</time>
      </trkpt>
      <trkpt lat="43.75702" lon="4.01301">
        <ele>65.51</ele>
        <time>2019-11-17T13:18:42Z</time>
      </trkpt>
      <trkpt lat="43.75706" lon="4.01302">
        <ele>65.51</ele>
        <time>2019-11-17T13:18:43Z</time>
      </trkpt>
      <trkpt lat="43.75711" lon="4.01304">
        <ele>65.03</ele>
        <time>2019-11-17T13:18:44Z</time>
      </trkpt>
      <trkpt lat="43.75715" lon="4.01306">
        <ele>64.55</ele>
        <time>2019-11-17T13:18:45Z</time>
      </trkpt>
      <trkpt lat="43.75718" lon="4.01308">
        <ele>64.55</ele>
        <time>2019-11-17T13:18:46Z</time>
      </trkpt>
      <trkpt lat="43.75719" lon="4.01312">
        <ele>64.07</ele>
        <time>2019-11-17T13:18:47Z</time>
      </trkpt>
      <trkpt lat="43.75719" lon="4.01316">
        <ele>64.07</ele>
        <time>2019-11-17T13:18:48Z</time>
      </trkpt>
      <trkpt lat="43.75718" lon="4.01318">
        <ele>64.07</ele>
        <time>2019-11-17T13:18:49Z</time>
      </trkpt>
      <trkpt lat="43.75716" lon="4.0132">
        <ele>64.07</ele>
        <time>2019-11-17T13:18:50Z</time>
      </trkpt>
      <trkpt lat="43.75714" lon="4.01322">
        <ele>64.07</ele>
        <time>2019-11-17T13:18:51Z</time>
      </trkpt>
      <trkpt lat="43.75713" lon="4.01323">
        <ele>64.07</ele>
        <time>2019-11-17T13:18:52Z</time>
      </trkpt>
      <trkpt lat="43.7571" lon="4.01324">
        <ele>64.07</ele>
        <time>2019-11-17T13:18:53Z</time>
      </trkpt>
      <trkpt lat="43.75682" lon="4.01339">
        <ele>59.74</ele>
        <time>2019-11-17T13:19:05Z</time>
      </trkpt>
      <trkpt lat="43.75652" lon="4.01351">
        <ele>55.41</ele>
        <time>2019-11-17T13:19:18Z</time>
      </trkpt>
      <trkpt lat="43.75648" lon="4.01352">
        <ele>54.93</ele>
        <time>2019-11-17T13:19:20Z</time>
      </trkpt>
      <trkpt lat="43.75646" lon="4.01351">
        <ele>54.45</ele>
        <time>2019-11-17T13:19:21Z</time>
      </trkpt>
      <trkpt lat="43.75644" lon="4.0135">
        <ele>53.49</ele>
        <time>2019-11-17T13:19:23Z</time>
      </trkpt>
      <trkpt lat="43.75642" lon="4.01351">
        <ele>53.01</ele>
        <time>2019-11-17T13:19:24Z</time>
      </trkpt>
      <trkpt lat="43.75632" lon="4.01353">
        <ele>50.61</ele>
        <time>2019-11-17T13:19:32Z</time>
      </trkpt>
      <trkpt lat="43.75621" lon="4.01331">
        <ele>50.61</ele>
        <time>2019-11-17T13:19:45Z</time>
      </trkpt>
      <trkpt lat="43.75618" lon="4.01325">
        <ele>56.86</ele>
        <time>2019-11-17T13:19:59Z</time>
      </trkpt>
      <trkpt lat="43.75618" lon="4.01324">
        <ele>56.86</ele>
        <time>2019-11-17T13:20:00Z</time>
      </trkpt>
      <trkpt lat="43.75616" lon="4.01307">
        <ele>53.97</ele>
        <time>2019-11-17T13:20:10Z</time>
      </trkpt>
      <trkpt lat="43.75613" lon="4.01299">
        <ele>52.53</ele>
        <time>2019-11-17T13:20:16Z</time>
      </trkpt>
      <trkpt lat="43.75626" lon="4.01279">
        <ele>48.68</ele>
        <time>2019-11-17T13:20:26Z</time>
      </trkpt>
      <trkpt lat="43.75658" lon="4.0129">
        <ele>46.76</ele>
        <time>2019-11-17T13:20:37Z</time>
      </trkpt>
      <trkpt lat="43.75683" lon="4.01299">
        <ele>47.24</ele>
        <time>2019-11-17T13:20:44Z</time>
      </trkpt>
      <trkpt lat="43.75687" lon="4.01299">
        <ele>48.2</ele>
        <time>2019-11-17T13:20:45Z</time>
      </trkpt>
      <trkpt lat="43.75691" lon="4.013">
        <ele>49.16</ele>
        <time>2019-11-17T13:20:46Z</time>
      </trkpt>
      <trkpt lat="43.75696" lon="4.01302">
        <ele>49.65</ele>
        <time>2019-11-17T13:20:47Z</time>
      </trkpt>
      <trkpt lat="43.757" lon="4.01303">
        <ele>50.61</ele>
        <time>2019-11-17T13:20:48Z</time>
      </trkpt>
      <trkpt lat="43.75748" lon="4.01323">
        <ele>55.41</ele>
        <time>2019-11-17T13:21:02Z</time>
      </trkpt>
      <trkpt lat="43.75785" lon="4.01344">
        <ele>55.89</ele>
        <time>2019-11-17T13:21:13Z</time>
      </trkpt>
      <trkpt lat="43.75788" lon="4.01348">
        <ele>56.37</ele>
        <time>2019-11-17T13:21:14Z</time>
      </trkpt>
      <trkpt lat="43.75791" lon="4.01353">
        <ele>56.37</ele>
        <time>2019-11-17T13:21:15Z</time>
      </trkpt>
      <trkpt lat="43.75794" lon="4.01358">
        <ele>56.37</ele>
        <time>2019-11-17T13:21:16Z</time>
      </trkpt>
      <trkpt lat="43.75796" lon="4.01363">
        <ele>56.37</ele>
        <time>2019-11-17T13:21:17Z</time>
      </trkpt>
      <trkpt lat="43.75805" lon="4.01385">
        <ele>56.37</ele>
        <time>2019-11-17T13:21:21Z</time>
      </trkpt>
      <trkpt lat="43.75806" lon="4.0139">
        <ele>55.89</ele>
        <time>2019-11-17T13:21:22Z</time>
      </trkpt>
      <trkpt lat="43.75827" lon="4.01457">
        <ele>54.45</ele>
        <time>2019-11-17T13:21:35Z</time>
      </trkpt>
      <trkpt lat="43.75837" lon="4.0149">
        <ele>55.89</ele>
        <time>2019-11-17T13:21:47Z</time>
      </trkpt>
      <trkpt lat="43.75841" lon="4.01501">
        <ele>55.41</ele>
        <time>2019-11-17T13:21:53Z</time>
      </trkpt>
      <trkpt lat="43.75841" lon="4.01503">
        <ele>55.89</ele>
        <time>2019-11-17T13:22:07Z</time>
      </trkpt>
      <trkpt lat="43.7584" lon="4.01502">
        <ele>52.53</ele>
        <time>2019-11-17T13:22:37Z</time>
      </trkpt>
      <trkpt lat="43.75841" lon="4.01503">
        <ele>54.45</ele>
        <time>2019-11-17T13:23:01Z</time>
      </trkpt>
      <trkpt lat="43.75843" lon="4.01503">
        <ele>54.93</ele>
        <time>2019-11-17T13:23:07Z</time>
      </trkpt>
      <trkpt lat="43.75844" lon="4.01501">
        <ele>55.41</ele>
        <time>2019-11-17T13:23:08Z</time>
      </trkpt>
      <trkpt lat="43.75845" lon="4.01498">
        <ele>55.41</ele>
        <time>2019-11-17T13:23:09Z</time>
      </trkpt>
      <trkpt lat="43.75844" lon="4.01495">
        <ele>54.93</ele>
        <time>2019-11-17T13:23:10Z</time>
      </trkpt>
      <trkpt lat="43.75843" lon="4.01492">
        <ele>54.93</ele>
        <time>2019-11-17T13:23:11Z</time>
      </trkpt>
      <trkpt lat="43.75843" lon="4.01489">
        <ele>54.93</ele>
        <time>2019-11-17T13:23:12Z</time>
      </trkpt>
      <trkpt lat="43.75844" lon="4.01486">
        <ele>54.93</ele>
        <time>2019-11-17T13:23:13Z</time>
      </trkpt>
      <trkpt lat="43.75846" lon="4.01484">
        <ele>54.93</ele>
        <time>2019-11-17T13:23:14Z</time>
      </trkpt>
      <trkpt lat="43.75849" lon="4.01482">
        <ele>54.93</ele>
        <time>2019-11-17T13:23:15Z</time>
      </trkpt>
      <trkpt lat="43.75852" lon="4.01483">
        <ele>54.93</ele>
        <time>2019-11-17T13:23:16Z</time>
      </trkpt>
      <trkpt lat="43.75856" lon="4.01486">
        <ele>54.45</ele>
        <time>2019-11-17T13:23:17Z</time>
      </trkpt>
      <trkpt lat="43.75861" lon="4.0149">
        <ele>54.45</ele>
        <time>2019-11-17T13:23:18Z</time>
      </trkpt>
      <trkpt lat="43.75865" lon="4.01494">
        <ele>53.97</ele>
        <time>2019-11-17T13:23:19Z</time>
      </trkpt>
      <trkpt lat="43.75871" lon="4.01497">
        <ele>53.97</ele>
        <time>2019-11-17T13:23:20Z</time>
      </trkpt>
      <trkpt lat="43.75876" lon="4.01498">
        <ele>53.49</ele>
        <time>2019-11-17T13:23:21Z</time>
      </trkpt>
      <trkpt lat="43.75882" lon="4.01496">
        <ele>53.01</ele>
        <time>2019-11-17T13:23:22Z</time>
      </trkpt>
      <trkpt lat="43.75887" lon="4.01493">
        <ele>52.53</ele>
        <time>2019-11-17T13:23:23Z</time>
      </trkpt>
      <trkpt lat="43.75891" lon="4.01488">
        <ele>52.05</ele>
        <time>2019-11-17T13:23:24Z</time>
      </trkpt>
      <trkpt lat="43.75894" lon="4.01482">
        <ele>51.57</ele>
        <time>2019-11-17T13:23:25Z</time>
      </trkpt>
      <trkpt lat="43.75897" lon="4.01476">
        <ele>51.09</ele>
        <time>2019-11-17T13:23:26Z</time>
      </trkpt>
      <trkpt lat="43.75898" lon="4.01469">
        <ele>50.61</ele>
        <time>2019-11-17T13:23:27Z</time>
      </trkpt>
      <trkpt lat="43.75898" lon="4.01461">
        <ele>50.61</ele>
        <time>2019-11-17T13:23:28Z</time>
      </trkpt>
      <trkpt lat="43.75898" lon="4.01453">
        <ele>50.13</ele>
        <time>2019-11-17T13:23:29Z</time>
      </trkpt>
      <trkpt lat="43.75907" lon="4.01367">
        <ele>47.24</ele>
        <time>2019-11-17T13:23:41Z</time>
      </trkpt>
      <trkpt lat="43.75908" lon="4.01248">
        <ele>43.88</ele>
        <time>2019-11-17T13:23:55Z</time>
      </trkpt>
      <trkpt lat="43.75909" lon="4.01241">
        <ele>43.88</ele>
        <time>2019-11-17T13:23:56Z</time>
      </trkpt>
      <trkpt lat="43.75911" lon="4.01234">
        <ele>43.4</ele>
        <time>2019-11-17T13:23:57Z</time>
      </trkpt>
      <trkpt lat="43.75914" lon="4.01229">
        <ele>43.4</ele>
        <time>2019-11-17T13:23:58Z</time>
      </trkpt>
      <trkpt lat="43.75918" lon="4.01225">
        <ele>42.92</ele>
        <time>2019-11-17T13:23:59Z</time>
      </trkpt>
      <trkpt lat="43.75922" lon="4.01222">
        <ele>42.92</ele>
        <time>2019-11-17T13:24:00Z</time>
      </trkpt>
      <trkpt lat="43.75926" lon="4.0122">
        <ele>42.92</ele>
        <time>2019-11-17T13:24:01Z</time>
      </trkpt>
      <trkpt lat="43.75951" lon="4.01203">
        <ele>44.36</ele>
        <time>2019-11-17T13:24:07Z</time>
      </trkpt>
      <trkpt lat="43.75955" lon="4.01201">
        <ele>44.84</ele>
        <time>2019-11-17T13:24:08Z</time>
      </trkpt>
      <trkpt lat="43.76022" lon="4.01187">
        <ele>46.28</ele>
        <time>2019-11-17T13:24:23Z</time>
      </trkpt>
      <trkpt lat="43.76068" lon="4.01185">
        <ele>47.72</ele>
        <time>2019-11-17T13:24:33Z</time>
      </trkpt>
      <trkpt lat="43.76072" lon="4.01183">
        <ele>48.2</ele>
        <time>2019-11-17T13:24:34Z</time>
      </trkpt>
      <trkpt lat="43.76117" lon="4.01158">
        <ele>50.61</ele>
        <time>2019-11-17T13:24:48Z</time>
      </trkpt>
      <trkpt lat="43.76162" lon="4.0114">
        <ele>52.53</ele>
        <time>2019-11-17T13:25:05Z</time>
      </trkpt>
      <trkpt lat="43.76187" lon="4.0112">
        <ele>51.57</ele>
        <time>2019-11-17T13:25:19Z</time>
      </trkpt>
      <trkpt lat="43.76215" lon="4.01089">
        <ele>50.61</ele>
        <time>2019-11-17T13:25:33Z</time>
      </trkpt>
      <trkpt lat="43.7625" lon="4.0106">
        <ele>48.68</ele>
        <time>2019-11-17T13:25:48Z</time>
      </trkpt>
      <trkpt lat="43.76307" lon="4.01044">
        <ele>48.68</ele>
        <time>2019-11-17T13:26:03Z</time>
      </trkpt>
      <trkpt lat="43.76315" lon="4.01043">
        <ele>48.2</ele>
        <time>2019-11-17T13:26:05Z</time>
      </trkpt>
      <trkpt lat="43.76319" lon="4.01042">
        <ele>48.2</ele>
        <time>2019-11-17T13:26:06Z</time>
      </trkpt>
      <trkpt lat="43.76323" lon="4.01039">
        <ele>47.72</ele>
        <time>2019-11-17T13:26:07Z</time>
      </trkpt>
      <trkpt lat="43.76327" lon="4.01035">
        <ele>47.72</ele>
        <time>2019-11-17T13:26:08Z</time>
      </trkpt>
      <trkpt lat="43.76331" lon="4.01031">
        <ele>47.24</ele>
        <time>2019-11-17T13:26:09Z</time>
      </trkpt>
      <trkpt lat="43.76334" lon="4.01026">
        <ele>47.24</ele>
        <time>2019-11-17T13:26:10Z</time>
      </trkpt>
      <trkpt lat="43.76337" lon="4.01021">
        <ele>47.24</ele>
        <time>2019-11-17T13:26:11Z</time>
      </trkpt>
      <trkpt lat="43.7634" lon="4.01016">
        <ele>46.76</ele>
        <time>2019-11-17T13:26:12Z</time>
      </trkpt>
      <trkpt lat="43.76381" lon="4.00961">
        <ele>49.65</ele>
        <time>2019-11-17T13:26:26Z</time>
      </trkpt>
      <trkpt lat="43.76451" lon="4.0088">
        <ele>50.13</ele>
        <time>2019-11-17T13:26:47Z</time>
      </trkpt>
      <trkpt lat="43.76461" lon="4.00871">
        <ele>50.13</ele>
        <time>2019-11-17T13:26:50Z</time>
      </trkpt>
      <trkpt lat="43.76486" lon="4.00856">
        <ele>50.13</ele>
        <time>2019-11-17T13:26:56Z</time>
      </trkpt>
      <trkpt lat="43.76502" lon="4.00847">
        <ele>49.65</ele>
        <time>2019-11-17T13:27:00Z</time>
      </trkpt>
      <trkpt lat="43.7656" lon="4.00802">
        <ele>48.68</ele>
        <time>2019-11-17T13:27:16Z</time>
      </trkpt>
      <trkpt lat="43.76583" lon="4.0078">
        <ele>47.24</ele>
        <time>2019-11-17T13:27:23Z</time>
      </trkpt>
      <trkpt lat="43.76586" lon="4.00775">
        <ele>46.28</ele>
        <time>2019-11-17T13:27:24Z</time>
      </trkpt>
      <trkpt lat="43.76589" lon="4.00769">
        <ele>45.8</ele>
        <time>2019-11-17T13:27:25Z</time>
      </trkpt>
      <trkpt lat="43.76591" lon="4.00764">
        <ele>45.32</ele>
        <time>2019-11-17T13:27:26Z</time>
      </trkpt>
      <trkpt lat="43.76593" lon="4.00758">
        <ele>44.84</ele>
        <time>2019-11-17T13:27:27Z</time>
      </trkpt>
      <trkpt lat="43.76595" lon="4.00751">
        <ele>44.84</ele>
        <time>2019-11-17T13:27:28Z</time>
      </trkpt>
      <trkpt lat="43.76596" lon="4.00745">
        <ele>44.36</ele>
        <time>2019-11-17T13:27:29Z</time>
      </trkpt>
      <trkpt lat="43.76598" lon="4.00738">
        <ele>43.88</ele>
        <time>2019-11-17T13:27:30Z</time>
      </trkpt>
      <trkpt lat="43.76601" lon="4.00733">
        <ele>43.88</ele>
        <time>2019-11-17T13:27:31Z</time>
      </trkpt>
      <trkpt lat="43.76604" lon="4.00728">
        <ele>43.4</ele>
        <time>2019-11-17T13:27:32Z</time>
      </trkpt>
      <trkpt lat="43.76609" lon="4.00723">
        <ele>43.4</ele>
        <time>2019-11-17T13:27:33Z</time>
      </trkpt>
      <trkpt lat="43.76613" lon="4.0072">
        <ele>43.4</ele>
        <time>2019-11-17T13:27:34Z</time>
      </trkpt>
      <trkpt lat="43.76649" lon="4.00685">
        <ele>46.76</ele>
        <time>2019-11-17T13:27:47Z</time>
      </trkpt>
      <trkpt lat="43.76681" lon="4.00645">
        <ele>50.13</ele>
        <time>2019-11-17T13:28:01Z</time>
      </trkpt>
      <trkpt lat="43.76707" lon="4.00604">
        <ele>50.13</ele>
        <time>2019-11-17T13:28:14Z</time>
      </trkpt>
      <trkpt lat="43.76728" lon="4.00566">
        <ele>46.76</ele>
        <time>2019-11-17T13:28:25Z</time>
      </trkpt>
      <trkpt lat="43.76731" lon="4.00565">
        <ele>46.28</ele>
        <time>2019-11-17T13:28:26Z</time>
      </trkpt>
      <trkpt lat="43.76735" lon="4.00565">
        <ele>46.28</ele>
        <time>2019-11-17T13:28:27Z</time>
      </trkpt>
      <trkpt lat="43.76738" lon="4.00567">
        <ele>46.28</ele>
        <time>2019-11-17T13:28:28Z</time>
      </trkpt>
      <trkpt lat="43.7674" lon="4.00571">
        <ele>46.28</ele>
        <time>2019-11-17T13:28:29Z</time>
      </trkpt>
      <trkpt lat="43.76743" lon="4.00575">
        <ele>46.28</ele>
        <time>2019-11-17T13:28:30Z</time>
      </trkpt>
      <trkpt lat="43.76784" lon="4.00629">
        <ele>47.72</ele>
        <time>2019-11-17T13:28:45Z</time>
      </trkpt>
      <trkpt lat="43.76838" lon="4.00652">
        <ele>51.57</ele>
        <time>2019-11-17T13:29:01Z</time>
      </trkpt>
      <trkpt lat="43.76889" lon="4.0067">
        <ele>53.49</ele>
        <time>2019-11-17T13:29:16Z</time>
      </trkpt>
      <trkpt lat="43.76958" lon="4.00687">
        <ele>53.01</ele>
        <time>2019-11-17T13:29:34Z</time>
      </trkpt>
      <trkpt lat="43.77017" lon="4.00705">
        <ele>54.45</ele>
        <time>2019-11-17T13:29:50Z</time>
      </trkpt>
      <trkpt lat="43.7706" lon="4.00719">
        <ele>55.41</ele>
        <time>2019-11-17T13:30:05Z</time>
      </trkpt>
      <trkpt lat="43.77077" lon="4.00716">
        <ele>55.89</ele>
        <time>2019-11-17T13:30:12Z</time>
      </trkpt>
      <trkpt lat="43.77078" lon="4.00719">
        <ele>55.41</ele>
        <time>2019-11-17T13:30:13Z</time>
      </trkpt>
      <trkpt lat="43.77078" lon="4.00723">
        <ele>55.41</ele>
        <time>2019-11-17T13:30:14Z</time>
      </trkpt>
      <trkpt lat="43.77078" lon="4.00727">
        <ele>55.41</ele>
        <time>2019-11-17T13:30:15Z</time>
      </trkpt>
      <trkpt lat="43.77077" lon="4.00733">
        <ele>55.41</ele>
        <time>2019-11-17T13:30:16Z</time>
      </trkpt>
      <trkpt lat="43.77074" lon="4.00745">
        <ele>55.41</ele>
        <time>2019-11-17T13:30:18Z</time>
      </trkpt>
      <trkpt lat="43.77072" lon="4.00758">
        <ele>55.41</ele>
        <time>2019-11-17T13:30:20Z</time>
      </trkpt>
      <trkpt lat="43.7707" lon="4.00765">
        <ele>54.93</ele>
        <time>2019-11-17T13:30:21Z</time>
      </trkpt>
      <trkpt lat="43.77067" lon="4.00779">
        <ele>54.45</ele>
        <time>2019-11-17T13:30:23Z</time>
      </trkpt>
      <trkpt lat="43.77065" lon="4.00787">
        <ele>54.45</ele>
        <time>2019-11-17T13:30:24Z</time>
      </trkpt>
      <trkpt lat="43.77064" lon="4.00793">
        <ele>53.97</ele>
        <time>2019-11-17T13:30:25Z</time>
      </trkpt>
      <trkpt lat="43.77061" lon="4.00813">
        <ele>52.53</ele>
        <time>2019-11-17T13:30:28Z</time>
      </trkpt>
      <trkpt lat="43.77052" lon="4.00861">
        <ele>48.68</ele>
        <time>2019-11-17T13:30:34Z</time>
      </trkpt>
      <trkpt lat="43.77049" lon="4.0087">
        <ele>48.2</ele>
        <time>2019-11-17T13:30:35Z</time>
      </trkpt>
      <trkpt lat="43.77045" lon="4.00877">
        <ele>47.72</ele>
        <time>2019-11-17T13:30:36Z</time>
      </trkpt>
      <trkpt lat="43.77041" lon="4.00884">
        <ele>47.24</ele>
        <time>2019-11-17T13:30:37Z</time>
      </trkpt>
      <trkpt lat="43.77035" lon="4.0089">
        <ele>46.76</ele>
        <time>2019-11-17T13:30:38Z</time>
      </trkpt>
      <trkpt lat="43.7703" lon="4.00896">
        <ele>46.28</ele>
        <time>2019-11-17T13:30:39Z</time>
      </trkpt>
      <trkpt lat="43.76982" lon="4.00934">
        <ele>43.4</ele>
        <time>2019-11-17T13:30:51Z</time>
      </trkpt>
      <trkpt lat="43.76962" lon="4.00973">
        <ele>40.99</ele>
        <time>2019-11-17T13:31:02Z</time>
      </trkpt>
      <trkpt lat="43.7696" lon="4.01003">
        <ele>42.44</ele>
        <time>2019-11-17T13:31:13Z</time>
      </trkpt>
      <trkpt lat="43.76942" lon="4.01022">
        <ele>42.44</ele>
        <time>2019-11-17T13:31:23Z</time>
      </trkpt>
      <trkpt lat="43.7694" lon="4.01022">
        <ele>42.44</ele>
        <time>2019-11-17T13:31:24Z</time>
      </trkpt>
      <trkpt lat="43.76935" lon="4.01021">
        <ele>42.44</ele>
        <time>2019-11-17T13:31:26Z</time>
      </trkpt>
      <trkpt lat="43.76934" lon="4.01022">
        <ele>42.44</ele>
        <time>2019-11-17T13:31:27Z</time>
      </trkpt>
      <trkpt lat="43.76932" lon="4.01023">
        <ele>42.44</ele>
        <time>2019-11-17T13:31:28Z</time>
      </trkpt>
      <trkpt lat="43.76931" lon="4.01025">
        <ele>42.44</ele>
        <time>2019-11-17T13:31:29Z</time>
      </trkpt>
      <trkpt lat="43.7693" lon="4.01028">
        <ele>42.92</ele>
        <time>2019-11-17T13:31:30Z</time>
      </trkpt>
      <trkpt lat="43.7693" lon="4.0103">
        <ele>42.92</ele>
        <time>2019-11-17T13:31:31Z</time>
      </trkpt>
      <trkpt lat="43.7693" lon="4.01032">
        <ele>42.44</ele>
        <time>2019-11-17T13:31:32Z</time>
      </trkpt>
      <trkpt lat="43.76929" lon="4.01034">
        <ele>42.44</ele>
        <time>2019-11-17T13:31:33Z</time>
      </trkpt>
      <trkpt lat="43.76928" lon="4.01036">
        <ele>42.44</ele>
        <time>2019-11-17T13:31:34Z</time>
      </trkpt>
      <trkpt lat="43.76901" lon="4.01065">
        <ele>42.44</ele>
        <time>2019-11-17T13:31:47Z</time>
      </trkpt>
      <trkpt lat="43.76868" lon="4.01106">
        <ele>39.55</ele>
        <time>2019-11-17T13:32:02Z</time>
      </trkpt>
      <trkpt lat="43.76854" lon="4.0115">
        <ele>38.59</ele>
        <time>2019-11-17T13:32:14Z</time>
      </trkpt>
      <trkpt lat="43.76835" lon="4.01227">
        <ele>41.47</ele>
        <time>2019-11-17T13:32:30Z</time>
      </trkpt>
      <trkpt lat="43.76825" lon="4.01298">
        <ele>41.95</ele>
        <time>2019-11-17T13:32:45Z</time>
      </trkpt>
      <trkpt lat="43.76845" lon="4.01347">
        <ele>43.4</ele>
        <time>2019-11-17T13:32:57Z</time>
      </trkpt>
      <trkpt lat="43.7686" lon="4.01413">
        <ele>44.84</ele>
        <time>2019-11-17T13:33:11Z</time>
      </trkpt>
      <trkpt lat="43.76862" lon="4.01472">
        <ele>45.32</ele>
        <time>2019-11-17T13:33:24Z</time>
      </trkpt>
      <trkpt lat="43.76867" lon="4.01522">
        <ele>43.4</ele>
        <time>2019-11-17T13:33:36Z</time>
      </trkpt>
      <trkpt lat="43.76877" lon="4.01572">
        <ele>43.88</ele>
        <time>2019-11-17T13:33:51Z</time>
      </trkpt>
      <trkpt lat="43.76874" lon="4.01577">
        <ele>44.36</ele>
        <time>2019-11-17T13:34:05Z</time>
      </trkpt>
      <trkpt lat="43.7687" lon="4.01579">
        <ele>44.36</ele>
        <time>2019-11-17T13:34:20Z</time>
      </trkpt>
      <trkpt lat="43.7687" lon="4.0158">
        <ele>44.36</ele>
        <time>2019-11-17T13:34:43Z</time>
      </trkpt>
      <trkpt lat="43.76875" lon="4.01576">
        <ele>42.92</ele>
        <time>2019-11-17T13:34:59Z</time>
      </trkpt>
      <trkpt lat="43.76876" lon="4.01575">
        <ele>42.92</ele>
        <time>2019-11-17T13:35:00Z</time>
      </trkpt>
      <trkpt lat="43.76877" lon="4.01574">
        <ele>46.28</ele>
        <time>2019-11-17T13:35:17Z</time>
      </trkpt>
      <trkpt lat="43.76877" lon="4.01577">
        <ele>46.28</ele>
        <time>2019-11-17T13:35:50Z</time>
      </trkpt>
      <trkpt lat="43.76878" lon="4.01579">
        <ele>43.88</ele>
        <time>2019-11-17T13:36:15Z</time>
      </trkpt>
      <trkpt lat="43.76879" lon="4.01577">
        <ele>42.92</ele>
        <time>2019-11-17T13:36:40Z</time>
      </trkpt>
      <trkpt lat="43.76881" lon="4.01576">
        <ele>42.44</ele>
        <time>2019-11-17T13:37:12Z</time>
      </trkpt>
      <trkpt lat="43.7688" lon="4.01578">
        <ele>44.36</ele>
        <time>2019-11-17T13:37:33Z</time>
      </trkpt>
      <trkpt lat="43.76877" lon="4.01578">
        <ele>43.88</ele>
        <time>2019-11-17T13:37:51Z</time>
      </trkpt>
      <trkpt lat="43.7688" lon="4.01582">
        <ele>43.88</ele>
        <time>2019-11-17T13:37:55Z</time>
      </trkpt>
      <trkpt lat="43.76881" lon="4.01584">
        <ele>43.88</ele>
        <time>2019-11-17T13:37:56Z</time>
      </trkpt>
      <trkpt lat="43.76881" lon="4.01585">
        <ele>43.88</ele>
        <time>2019-11-17T13:37:57Z</time>
      </trkpt>
      <trkpt lat="43.76881" lon="4.01587">
        <ele>43.4</ele>
        <time>2019-11-17T13:37:58Z</time>
      </trkpt>
      <trkpt lat="43.76882" lon="4.01589">
        <ele>43.4</ele>
        <time>2019-11-17T13:37:59Z</time>
      </trkpt>
      <trkpt lat="43.76882" lon="4.01591">
        <ele>42.92</ele>
        <time>2019-11-17T13:38:00Z</time>
      </trkpt>
      <trkpt lat="43.76882" lon="4.01593">
        <ele>42.92</ele>
        <time>2019-11-17T13:38:01Z</time>
      </trkpt>
      <trkpt lat="43.76882" lon="4.01596">
        <ele>42.92</ele>
        <time>2019-11-17T13:38:02Z</time>
      </trkpt>
      <trkpt lat="43.76883" lon="4.01598">
        <ele>42.44</ele>
        <time>2019-11-17T13:38:03Z</time>
      </trkpt>
      <trkpt lat="43.76898" lon="4.01635">
        <ele>38.59</ele>
        <time>2019-11-17T13:38:15Z</time>
      </trkpt>
      <trkpt lat="43.76916" lon="4.01666">
        <ele>36.19</ele>
        <time>2019-11-17T13:38:26Z</time>
      </trkpt>
      <trkpt lat="43.76942" lon="4.01713">
        <ele>35.23</ele>
        <time>2019-11-17T13:38:39Z</time>
      </trkpt>
      <trkpt lat="43.76976" lon="4.01766">
        <ele>36.19</ele>
        <time>2019-11-17T13:38:53Z</time>
      </trkpt>
      <trkpt lat="43.76979" lon="4.01774">
        <ele>36.19</ele>
        <time>2019-11-17T13:38:55Z</time>
      </trkpt>
      <trkpt lat="43.7698" lon="4.0178">
        <ele>36.67</ele>
        <time>2019-11-17T13:38:56Z</time>
      </trkpt>
      <trkpt lat="43.76987" lon="4.01849">
        <ele>41.47</ele>
        <time>2019-11-17T13:39:09Z</time>
      </trkpt>
      <trkpt lat="43.76993" lon="4.01912">
        <ele>42.44</ele>
        <time>2019-11-17T13:39:22Z</time>
      </trkpt>
      <trkpt lat="43.77005" lon="4.01982">
        <ele>43.88</ele>
        <time>2019-11-17T13:39:37Z</time>
      </trkpt>
      <trkpt lat="43.77012" lon="4.02034">
        <ele>43.4</ele>
        <time>2019-11-17T13:39:49Z</time>
      </trkpt>
      <trkpt lat="43.77021" lon="4.02076">
        <ele>39.07</ele>
        <time>2019-11-17T13:39:59Z</time>
      </trkpt>
      <trkpt lat="43.77044" lon="4.02126">
        <ele>36.67</ele>
        <time>2019-11-17T13:40:12Z</time>
      </trkpt>
      <trkpt lat="43.77074" lon="4.02162">
        <ele>38.11</ele>
        <time>2019-11-17T13:40:24Z</time>
      </trkpt>
      <trkpt lat="43.77112" lon="4.0221">
        <ele>38.59</ele>
        <time>2019-11-17T13:40:38Z</time>
      </trkpt>
      <trkpt lat="43.77137" lon="4.02249">
        <ele>39.07</ele>
        <time>2019-11-17T13:40:49Z</time>
      </trkpt>
      <trkpt lat="43.77169" lon="4.02281">
        <ele>40.99</ele>
        <time>2019-11-17T13:41:01Z</time>
      </trkpt>
      <trkpt lat="43.77209" lon="4.02288">
        <ele>41.47</ele>
        <time>2019-11-17T13:41:11Z</time>
      </trkpt>
      <trkpt lat="43.77274" lon="4.02268">
        <ele>38.11</ele>
        <time>2019-11-17T13:41:23Z</time>
      </trkpt>
      <trkpt lat="43.77337" lon="4.02248">
        <ele>40.51</ele>
        <time>2019-11-17T13:41:35Z</time>
      </trkpt>
      <trkpt lat="43.77412" lon="4.02221">
        <ele>44.36</ele>
        <time>2019-11-17T13:41:53Z</time>
      </trkpt>
      <trkpt lat="43.77482" lon="4.02189">
        <ele>45.8</ele>
        <time>2019-11-17T13:42:11Z</time>
      </trkpt>
      <trkpt lat="43.77551" lon="4.02162">
        <ele>45.8</ele>
        <time>2019-11-17T13:42:28Z</time>
      </trkpt>
      <trkpt lat="43.77609" lon="4.02155">
        <ele>46.76</ele>
        <time>2019-11-17T13:42:42Z</time>
      </trkpt>
      <trkpt lat="43.77673" lon="4.02145">
        <ele>45.32</ele>
        <time>2019-11-17T13:43:00Z</time>
      </trkpt>
      <trkpt lat="43.77727" lon="4.02141">
        <ele>44.84</ele>
        <time>2019-11-17T13:43:17Z</time>
      </trkpt>
      <trkpt lat="43.77781" lon="4.02147">
        <ele>44.84</ele>
        <time>2019-11-17T13:43:33Z</time>
      </trkpt>
      <trkpt lat="43.77826" lon="4.02153">
        <ele>44.84</ele>
        <time>2019-11-17T13:43:46Z</time>
      </trkpt>
      <trkpt lat="43.7787" lon="4.02158">
        <ele>45.8</ele>
        <time>2019-11-17T13:43:59Z</time>
      </trkpt>
      <trkpt lat="43.77918" lon="4.02167">
        <ele>46.28</ele>
        <time>2019-11-17T13:44:14Z</time>
      </trkpt>
      <trkpt lat="43.77967" lon="4.02158">
        <ele>48.68</ele>
        <time>2019-11-17T13:44:29Z</time>
      </trkpt>
      <trkpt lat="43.78035" lon="4.02128">
        <ele>51.57</ele>
        <time>2019-11-17T13:44:49Z</time>
      </trkpt>
      <trkpt lat="43.78104" lon="4.02096">
        <ele>53.49</ele>
        <time>2019-11-17T13:45:10Z</time>
      </trkpt>
      <trkpt lat="43.78169" lon="4.02077">
        <ele>53.49</ele>
        <time>2019-11-17T13:45:28Z</time>
      </trkpt>
      <trkpt lat="43.78243" lon="4.0206">
        <ele>53.49</ele>
        <time>2019-11-17T13:45:47Z</time>
      </trkpt>
      <trkpt lat="43.7832" lon="4.02044">
        <ele>53.49</ele>
        <time>2019-11-17T13:46:06Z</time>
      </trkpt>
      <trkpt lat="43.78392" lon="4.02024">
        <ele>54.45</ele>
        <time>2019-11-17T13:46:24Z</time>
      </trkpt>
      <trkpt lat="43.78445" lon="4.02006">
        <ele>55.41</ele>
        <time>2019-11-17T13:46:41Z</time>
      </trkpt>
      <trkpt lat="43.78491" lon="4.0199">
        <ele>53.97</ele>
        <time>2019-11-17T13:46:56Z</time>
      </trkpt>
      <trkpt lat="43.78548" lon="4.01972">
        <ele>53.49</ele>
        <time>2019-11-17T13:47:12Z</time>
      </trkpt>
      <trkpt lat="43.78631" lon="4.01944">
        <ele>56.37</ele>
        <time>2019-11-17T13:47:33Z</time>
      </trkpt>
      <trkpt lat="43.78697" lon="4.01901">
        <ele>55.89</ele>
        <time>2019-11-17T13:47:51Z</time>
      </trkpt>
      <trkpt lat="43.78763" lon="4.01838">
        <ele>55.41</ele>
        <time>2019-11-17T13:48:11Z</time>
      </trkpt>
      <trkpt lat="43.78815" lon="4.01788">
        <ele>55.41</ele>
        <time>2019-11-17T13:48:28Z</time>
      </trkpt>
      <trkpt lat="43.78864" lon="4.01738">
        <ele>56.86</ele>
        <time>2019-11-17T13:48:44Z</time>
      </trkpt>
      <trkpt lat="43.7893" lon="4.01677">
        <ele>57.34</ele>
        <time>2019-11-17T13:49:04Z</time>
      </trkpt>
      <trkpt lat="43.78992" lon="4.01634">
        <ele>58.3</ele>
        <time>2019-11-17T13:49:22Z</time>
      </trkpt>
      <trkpt lat="43.79041" lon="4.0159">
        <ele>59.74</ele>
        <time>2019-11-17T13:49:38Z</time>
      </trkpt>
      <trkpt lat="43.79073" lon="4.01543">
        <ele>60.22</ele>
        <time>2019-11-17T13:49:52Z</time>
      </trkpt>
      <trkpt lat="43.79076" lon="4.01539">
        <ele>59.74</ele>
        <time>2019-11-17T13:49:53Z</time>
      </trkpt>
      <trkpt lat="43.79079" lon="4.01536">
        <ele>59.74</ele>
        <time>2019-11-17T13:49:54Z</time>
      </trkpt>
      <trkpt lat="43.79083" lon="4.01532">
        <ele>59.74</ele>
        <time>2019-11-17T13:49:55Z</time>
      </trkpt>
      <trkpt lat="43.79088" lon="4.0153">
        <ele>59.26</ele>
        <time>2019-11-17T13:49:56Z</time>
      </trkpt>
      <trkpt lat="43.79092" lon="4.01528">
        <ele>59.26</ele>
        <time>2019-11-17T13:49:57Z</time>
      </trkpt>
      <trkpt lat="43.79097" lon="4.01527">
        <ele>58.78</ele>
        <time>2019-11-17T13:49:58Z</time>
      </trkpt>
      <trkpt lat="43.79102" lon="4.01526">
        <ele>58.78</ele>
        <time>2019-11-17T13:49:59Z</time>
      </trkpt>
      <trkpt lat="43.79107" lon="4.01527">
        <ele>58.78</ele>
        <time>2019-11-17T13:50:00Z</time>
      </trkpt>
      <trkpt lat="43.79112" lon="4.01527">
        <ele>58.78</ele>
        <time>2019-11-17T13:50:01Z</time>
      </trkpt>
      <trkpt lat="43.79117" lon="4.01527">
        <ele>58.78</ele>
        <time>2019-11-17T13:50:02Z</time>
      </trkpt>
      <trkpt lat="43.79131" lon="4.01528">
        <ele>58.78</ele>
        <time>2019-11-17T13:50:05Z</time>
      </trkpt>
      <trkpt lat="43.79136" lon="4.01527">
        <ele>58.78</ele>
        <time>2019-11-17T13:50:06Z</time>
      </trkpt>
      <trkpt lat="43.79185" lon="4.01504">
        <ele>60.7</ele>
        <time>2019-11-17T13:50:21Z</time>
      </trkpt>
      <trkpt lat="43.79228" lon="4.0148">
        <ele>63.58</ele>
        <time>2019-11-17T13:50:38Z</time>
      </trkpt>
      <trkpt lat="43.79284" lon="4.01449">
        <ele>64.07</ele>
        <time>2019-11-17T13:50:58Z</time>
      </trkpt>
      <trkpt lat="43.79325" lon="4.01431">
        <ele>66.47</ele>
        <time>2019-11-17T13:51:13Z</time>
      </trkpt>
      <trkpt lat="43.79357" lon="4.01418">
        <ele>66.95</ele>
        <time>2019-11-17T13:51:25Z</time>
      </trkpt>
      <trkpt lat="43.79393" lon="4.01405">
        <ele>67.43</ele>
        <time>2019-11-17T13:51:39Z</time>
      </trkpt>
      <trkpt lat="43.79426" lon="4.01387">
        <ele>68.39</ele>
        <time>2019-11-17T13:51:53Z</time>
      </trkpt>
      <trkpt lat="43.79464" lon="4.01365">
        <ele>68.39</ele>
        <time>2019-11-17T13:52:07Z</time>
      </trkpt>
      <trkpt lat="43.7948" lon="4.01369">
        <ele>68.39</ele>
        <time>2019-11-17T13:52:13Z</time>
      </trkpt>
      <trkpt lat="43.79499" lon="4.01399">
        <ele>65.51</ele>
        <time>2019-11-17T13:52:26Z</time>
      </trkpt>
      <trkpt lat="43.79513" lon="4.0143">
        <ele>65.03</ele>
        <time>2019-11-17T13:52:38Z</time>
      </trkpt>
      <trkpt lat="43.7952" lon="4.01472">
        <ele>65.51</ele>
        <time>2019-11-17T13:52:52Z</time>
      </trkpt>
      <trkpt lat="43.79528" lon="4.01532">
        <ele>64.07</ele>
        <time>2019-11-17T13:53:08Z</time>
      </trkpt>
      <trkpt lat="43.79531" lon="4.01575">
        <ele>63.1</ele>
        <time>2019-11-17T13:53:21Z</time>
      </trkpt>
      <trkpt lat="43.7953" lon="4.01578">
        <ele>63.1</ele>
        <time>2019-11-17T13:53:22Z</time>
      </trkpt>
      <trkpt lat="43.7953" lon="4.01581">
        <ele>62.62</ele>
        <time>2019-11-17T13:53:23Z</time>
      </trkpt>
      <trkpt lat="43.79529" lon="4.01585">
        <ele>62.62</ele>
        <time>2019-11-17T13:53:24Z</time>
      </trkpt>
      <trkpt lat="43.79528" lon="4.01588">
        <ele>62.62</ele>
        <time>2019-11-17T13:53:25Z</time>
      </trkpt>
      <trkpt lat="43.79526" lon="4.01591">
        <ele>62.62</ele>
        <time>2019-11-17T13:53:26Z</time>
      </trkpt>
      <trkpt lat="43.79525" lon="4.01594">
        <ele>62.62</ele>
        <time>2019-11-17T13:53:27Z</time>
      </trkpt>
      <trkpt lat="43.79503" lon="4.01656">
        <ele>63.58</ele>
        <time>2019-11-17T13:53:42Z</time>
      </trkpt>
      <trkpt lat="43.79483" lon="4.01716">
        <ele>68.39</ele>
        <time>2019-11-17T13:53:56Z</time>
      </trkpt>
      <trkpt lat="43.7946" lon="4.01774">
        <ele>66.95</ele>
        <time>2019-11-17T13:54:10Z</time>
      </trkpt>
      <trkpt lat="43.79426" lon="4.01847">
        <ele>66.47</ele>
        <time>2019-11-17T13:54:27Z</time>
      </trkpt>
      <trkpt lat="43.79374" lon="4.01934">
        <ele>64.55</ele>
        <time>2019-11-17T13:54:41Z</time>
      </trkpt>
      <trkpt lat="43.79318" lon="4.02008">
        <ele>66.95</ele>
        <time>2019-11-17T13:54:56Z</time>
      </trkpt>
      <trkpt lat="43.79273" lon="4.02068">
        <ele>67.91</ele>
        <time>2019-11-17T13:55:09Z</time>
      </trkpt>
      <trkpt lat="43.79251" lon="4.02137">
        <ele>67.91</ele>
        <time>2019-11-17T13:55:21Z</time>
      </trkpt>
      <trkpt lat="43.79248" lon="4.02263">
        <ele>66.95</ele>
        <time>2019-11-17T13:55:39Z</time>
      </trkpt>
      <trkpt lat="43.79254" lon="4.02398">
        <ele>65.51</ele>
        <time>2019-11-17T13:55:58Z</time>
      </trkpt>
      <trkpt lat="43.79246" lon="4.02498">
        <ele>64.07</ele>
        <time>2019-11-17T13:56:13Z</time>
      </trkpt>
      <trkpt lat="43.79214" lon="4.02599">
        <ele>63.58</ele>
        <time>2019-11-17T13:56:29Z</time>
      </trkpt>
      <trkpt lat="43.79158" lon="4.02713">
        <ele>61.66</ele>
        <time>2019-11-17T13:56:48Z</time>
      </trkpt>
      <trkpt lat="43.7914" lon="4.02732">
        <ele>61.66</ele>
        <time>2019-11-17T13:56:52Z</time>
      </trkpt>
      <trkpt lat="43.79089" lon="4.02762">
        <ele>60.22</ele>
        <time>2019-11-17T13:57:03Z</time>
      </trkpt>
      <trkpt lat="43.79085" lon="4.02765">
        <ele>60.22</ele>
        <time>2019-11-17T13:57:04Z</time>
      </trkpt>
      <trkpt lat="43.78998" lon="4.02831">
        <ele>59.74</ele>
        <time>2019-11-17T13:57:23Z</time>
      </trkpt>
      <trkpt lat="43.78972" lon="4.02855">
        <ele>60.22</ele>
        <time>2019-11-17T13:57:29Z</time>
      </trkpt>
      <trkpt lat="43.78893" lon="4.02931">
        <ele>57.82</ele>
        <time>2019-11-17T13:57:49Z</time>
      </trkpt>
      <trkpt lat="43.78872" lon="4.02949">
        <ele>56.86</ele>
        <time>2019-11-17T13:57:54Z</time>
      </trkpt>
      <trkpt lat="43.78809" lon="4.02997">
        <ele>55.41</ele>
        <time>2019-11-17T13:58:09Z</time>
      </trkpt>
      <trkpt lat="43.78804" lon="4.02999">
        <ele>55.41</ele>
        <time>2019-11-17T13:58:10Z</time>
      </trkpt>
      <trkpt lat="43.78762" lon="4.03004">
        <ele>54.93</ele>
        <time>2019-11-17T13:58:20Z</time>
      </trkpt>
      <trkpt lat="43.78716" lon="4.03003">
        <ele>55.89</ele>
        <time>2019-11-17T13:58:32Z</time>
      </trkpt>
      <trkpt lat="43.78703" lon="4.03003">
        <ele>56.37</ele>
        <time>2019-11-17T13:58:35Z</time>
      </trkpt>
      <trkpt lat="43.78688" lon="4.03004">
        <ele>56.86</ele>
        <time>2019-11-17T13:58:38Z</time>
      </trkpt>
      <trkpt lat="43.78684" lon="4.03002">
        <ele>56.86</ele>
        <time>2019-11-17T13:58:39Z</time>
      </trkpt>
      <trkpt lat="43.7868" lon="4.02999">
        <ele>56.86</ele>
        <time>2019-11-17T13:58:40Z</time>
      </trkpt>
      <trkpt lat="43.78675" lon="4.02997">
        <ele>56.37</ele>
        <time>2019-11-17T13:58:41Z</time>
      </trkpt>
      <trkpt lat="43.78671" lon="4.02998">
        <ele>56.37</ele>
        <time>2019-11-17T13:58:42Z</time>
      </trkpt>
      <trkpt lat="43.78668" lon="4.03001">
        <ele>56.37</ele>
        <time>2019-11-17T13:58:43Z</time>
      </trkpt>
      <trkpt lat="43.78667" lon="4.03005">
        <ele>55.89</ele>
        <time>2019-11-17T13:58:44Z</time>
      </trkpt>
      <trkpt lat="43.78666" lon="4.03009">
        <ele>55.89</ele>
        <time>2019-11-17T13:58:45Z</time>
      </trkpt>
      <trkpt lat="43.78665" lon="4.03013">
        <ele>55.41</ele>
        <time>2019-11-17T13:58:46Z</time>
      </trkpt>
      <trkpt lat="43.78665" lon="4.03017">
        <ele>55.41</ele>
        <time>2019-11-17T13:58:47Z</time>
      </trkpt>
      <trkpt lat="43.78665" lon="4.03021">
        <ele>55.41</ele>
        <time>2019-11-17T13:58:48Z</time>
      </trkpt>
      <trkpt lat="43.78665" lon="4.03025">
        <ele>54.93</ele>
        <time>2019-11-17T13:58:49Z</time>
      </trkpt>
      <trkpt lat="43.78664" lon="4.03029">
        <ele>54.93</ele>
        <time>2019-11-17T13:58:50Z</time>
      </trkpt>
      <trkpt lat="43.78654" lon="4.0308">
        <ele>54.93</ele>
        <time>2019-11-17T13:59:02Z</time>
      </trkpt>
      <trkpt lat="43.78625" lon="4.03131">
        <ele>55.41</ele>
        <time>2019-11-17T13:59:16Z</time>
      </trkpt>
      <trkpt lat="43.78577" lon="4.03175">
        <ele>53.49</ele>
        <time>2019-11-17T13:59:29Z</time>
      </trkpt>
      <trkpt lat="43.78574" lon="4.03181">
        <ele>53.49</ele>
        <time>2019-11-17T13:59:30Z</time>
      </trkpt>
      <trkpt lat="43.78572" lon="4.03186">
        <ele>53.49</ele>
        <time>2019-11-17T13:59:31Z</time>
      </trkpt>
      <trkpt lat="43.7857" lon="4.03193">
        <ele>53.49</ele>
        <time>2019-11-17T13:59:32Z</time>
      </trkpt>
      <trkpt lat="43.78569" lon="4.032">
        <ele>53.01</ele>
        <time>2019-11-17T13:59:33Z</time>
      </trkpt>
      <trkpt lat="43.78569" lon="4.03206">
        <ele>52.53</ele>
        <time>2019-11-17T13:59:34Z</time>
      </trkpt>
      <trkpt lat="43.78568" lon="4.03213">
        <ele>52.05</ele>
        <time>2019-11-17T13:59:35Z</time>
      </trkpt>
      <trkpt lat="43.78568" lon="4.0322">
        <ele>52.05</ele>
        <time>2019-11-17T13:59:36Z</time>
      </trkpt>
      <trkpt lat="43.78567" lon="4.03333">
        <ele>50.61</ele>
        <time>2019-11-17T13:59:53Z</time>
      </trkpt>
      <trkpt lat="43.7857" lon="4.03407">
        <ele>49.16</ele>
        <time>2019-11-17T14:00:06Z</time>
      </trkpt>
      <trkpt lat="43.78578" lon="4.03474">
        <ele>48.2</ele>
        <time>2019-11-17T14:00:16Z</time>
      </trkpt>
      <trkpt lat="43.78578" lon="4.03481">
        <ele>48.2</ele>
        <time>2019-11-17T14:00:17Z</time>
      </trkpt>
      <trkpt lat="43.78577" lon="4.03488">
        <ele>47.72</ele>
        <time>2019-11-17T14:00:18Z</time>
      </trkpt>
      <trkpt lat="43.78575" lon="4.03494">
        <ele>48.2</ele>
        <time>2019-11-17T14:00:19Z</time>
      </trkpt>
      <trkpt lat="43.78572" lon="4.035">
        <ele>48.2</ele>
        <time>2019-11-17T14:00:20Z</time>
      </trkpt>
      <trkpt lat="43.78569" lon="4.03506">
        <ele>48.2</ele>
        <time>2019-11-17T14:00:21Z</time>
      </trkpt>
      <trkpt lat="43.78566" lon="4.0351">
        <ele>48.2</ele>
        <time>2019-11-17T14:00:22Z</time>
      </trkpt>
      <trkpt lat="43.78562" lon="4.03514">
        <ele>48.2</ele>
        <time>2019-11-17T14:00:23Z</time>
      </trkpt>
      <trkpt lat="43.78558" lon="4.03517">
        <ele>48.2</ele>
        <time>2019-11-17T14:00:24Z</time>
      </trkpt>
      <trkpt lat="43.78527" lon="4.03538">
        <ele>48.68</ele>
        <time>2019-11-17T14:00:31Z</time>
      </trkpt>
      <trkpt lat="43.78501" lon="4.0356">
        <ele>47.72</ele>
        <time>2019-11-17T14:00:39Z</time>
      </trkpt>
      <trkpt lat="43.785" lon="4.03563">
        <ele>47.24</ele>
        <time>2019-11-17T14:00:40Z</time>
      </trkpt>
      <trkpt lat="43.78504" lon="4.03563">
        <ele>47.24</ele>
        <time>2019-11-17T14:00:43Z</time>
      </trkpt>
      <trkpt lat="43.78506" lon="4.03561">
        <ele>47.24</ele>
        <time>2019-11-17T14:00:44Z</time>
      </trkpt>
      <trkpt lat="43.7855" lon="4.03529">
        <ele>48.2</ele>
        <time>2019-11-17T14:01:04Z</time>
      </trkpt>
      <trkpt lat="43.7858" lon="4.03494">
        <ele>49.65</ele>
        <time>2019-11-17T14:01:19Z</time>
      </trkpt>
      <trkpt lat="43.78583" lon="4.03494">
        <ele>49.65</ele>
        <time>2019-11-17T14:01:20Z</time>
      </trkpt>
      <trkpt lat="43.78584" lon="4.03496">
        <ele>49.65</ele>
        <time>2019-11-17T14:01:21Z</time>
      </trkpt>
      <trkpt lat="43.78586" lon="4.03499">
        <ele>49.16</ele>
        <time>2019-11-17T14:01:22Z</time>
      </trkpt>
      <trkpt lat="43.78586" lon="4.03503">
        <ele>49.16</ele>
        <time>2019-11-17T14:01:23Z</time>
      </trkpt>
      <trkpt lat="43.78586" lon="4.03507">
        <ele>48.68</ele>
        <time>2019-11-17T14:01:24Z</time>
      </trkpt>
      <trkpt lat="43.78591" lon="4.0357">
        <ele>46.28</ele>
        <time>2019-11-17T14:01:35Z</time>
      </trkpt>
      <trkpt lat="43.78573" lon="4.03671">
        <ele>42.92</ele>
        <time>2019-11-17T14:01:49Z</time>
      </trkpt>
      <trkpt lat="43.7854" lon="4.03783">
        <ele>41.47</ele>
        <time>2019-11-17T14:02:03Z</time>
      </trkpt>
      <trkpt lat="43.78539" lon="4.03791">
        <ele>41.47</ele>
        <time>2019-11-17T14:02:04Z</time>
      </trkpt>
      <trkpt lat="43.78539" lon="4.03799">
        <ele>40.99</ele>
        <time>2019-11-17T14:02:05Z</time>
      </trkpt>
      <trkpt lat="43.78539" lon="4.03807">
        <ele>40.99</ele>
        <time>2019-11-17T14:02:06Z</time>
      </trkpt>
      <trkpt lat="43.78541" lon="4.03815">
        <ele>40.99</ele>
        <time>2019-11-17T14:02:07Z</time>
      </trkpt>
      <trkpt lat="43.78561" lon="4.03934">
        <ele>40.99</ele>
        <time>2019-11-17T14:02:23Z</time>
      </trkpt>
      <trkpt lat="43.78563" lon="4.04042">
        <ele>40.99</ele>
        <time>2019-11-17T14:02:38Z</time>
      </trkpt>
      <trkpt lat="43.7855" lon="4.04175">
        <ele>38.11</ele>
        <time>2019-11-17T14:02:55Z</time>
      </trkpt>
      <trkpt lat="43.78535" lon="4.04325">
        <ele>39.07</ele>
        <time>2019-11-17T14:03:14Z</time>
      </trkpt>
      <trkpt lat="43.78546" lon="4.04414">
        <ele>40.03</ele>
        <time>2019-11-17T14:03:26Z</time>
      </trkpt>
      <trkpt lat="43.78559" lon="4.04481">
        <ele>40.03</ele>
        <time>2019-11-17T14:03:36Z</time>
      </trkpt>
      <trkpt lat="43.7856" lon="4.04487">
        <ele>40.03</ele>
        <time>2019-11-17T14:03:37Z</time>
      </trkpt>
      <trkpt lat="43.78554" lon="4.04608">
        <ele>37.63</ele>
        <time>2019-11-17T14:03:53Z</time>
      </trkpt>
      <trkpt lat="43.78533" lon="4.04742">
        <ele>34.74</ele>
        <time>2019-11-17T14:04:10Z</time>
      </trkpt>
      <trkpt lat="43.78521" lon="4.0489">
        <ele>36.19</ele>
        <time>2019-11-17T14:04:29Z</time>
      </trkpt>
      <trkpt lat="43.78523" lon="4.04927">
        <ele>35.71</ele>
        <time>2019-11-17T14:04:34Z</time>
      </trkpt>
      <trkpt lat="43.78543" lon="4.0505">
        <ele>33.3</ele>
        <time>2019-11-17T14:04:52Z</time>
      </trkpt>
      <trkpt lat="43.78543" lon="4.05134">
        <ele>32.82</ele>
        <time>2019-11-17T14:05:04Z</time>
      </trkpt>
      <trkpt lat="43.78544" lon="4.05139">
        <ele>33.3</ele>
        <time>2019-11-17T14:05:05Z</time>
      </trkpt>
      <trkpt lat="43.78546" lon="4.05144">
        <ele>33.3</ele>
        <time>2019-11-17T14:05:06Z</time>
      </trkpt>
      <trkpt lat="43.78549" lon="4.05147">
        <ele>33.3</ele>
        <time>2019-11-17T14:05:07Z</time>
      </trkpt>
      <trkpt lat="43.78553" lon="4.0515">
        <ele>33.78</ele>
        <time>2019-11-17T14:05:08Z</time>
      </trkpt>
      <trkpt lat="43.78575" lon="4.05171">
        <ele>33.3</ele>
        <time>2019-11-17T14:05:15Z</time>
      </trkpt>
      <trkpt lat="43.78599" lon="4.05193">
        <ele>32.82</ele>
        <time>2019-11-17T14:05:22Z</time>
      </trkpt>
      <trkpt lat="43.78602" lon="4.05196">
        <ele>32.82</ele>
        <time>2019-11-17T14:05:23Z</time>
      </trkpt>
      <trkpt lat="43.78609" lon="4.05202">
        <ele>32.82</ele>
        <time>2019-11-17T14:05:25Z</time>
      </trkpt>
      <trkpt lat="43.78613" lon="4.05204">
        <ele>32.82</ele>
        <time>2019-11-17T14:05:26Z</time>
      </trkpt>
      <trkpt lat="43.78617" lon="4.05204">
        <ele>32.34</ele>
        <time>2019-11-17T14:05:27Z</time>
      </trkpt>
      <trkpt lat="43.78621" lon="4.05201">
        <ele>32.34</ele>
        <time>2019-11-17T14:05:28Z</time>
      </trkpt>
      <trkpt lat="43.78624" lon="4.05198">
        <ele>32.34</ele>
        <time>2019-11-17T14:05:29Z</time>
      </trkpt>
      <trkpt lat="43.78626" lon="4.05194">
        <ele>31.86</ele>
        <time>2019-11-17T14:05:30Z</time>
      </trkpt>
      <trkpt lat="43.78658" lon="4.05137">
        <ele>31.38</ele>
        <time>2019-11-17T14:05:42Z</time>
      </trkpt>
      <trkpt lat="43.78705" lon="4.05044">
        <ele>30.9</ele>
        <time>2019-11-17T14:06:00Z</time>
      </trkpt>
      <trkpt lat="43.78708" lon="4.05039">
        <ele>30.9</ele>
        <time>2019-11-17T14:06:01Z</time>
      </trkpt>
      <trkpt lat="43.7871" lon="4.05034">
        <ele>31.38</ele>
        <time>2019-11-17T14:06:02Z</time>
      </trkpt>
      <trkpt lat="43.78767" lon="4.04931">
        <ele>32.82</ele>
        <time>2019-11-17T14:06:23Z</time>
      </trkpt>
      <trkpt lat="43.78827" lon="4.04864">
        <ele>35.71</ele>
        <time>2019-11-17T14:06:42Z</time>
      </trkpt>
      <trkpt lat="43.78865" lon="4.048">
        <ele>36.67</ele>
        <time>2019-11-17T14:06:58Z</time>
      </trkpt>
      <trkpt lat="43.78847" lon="4.04743">
        <ele>37.63</ele>
        <time>2019-11-17T14:07:13Z</time>
      </trkpt>
      <trkpt lat="43.78828" lon="4.04692">
        <ele>37.63</ele>
        <time>2019-11-17T14:07:29Z</time>
      </trkpt>
      <trkpt lat="43.78825" lon="4.04672">
        <ele>37.15</ele>
        <time>2019-11-17T14:07:35Z</time>
      </trkpt>
      <trkpt lat="43.78827" lon="4.0467">
        <ele>37.15</ele>
        <time>2019-11-17T14:07:36Z</time>
      </trkpt>
      <trkpt lat="43.78829" lon="4.04667">
        <ele>37.15</ele>
        <time>2019-11-17T14:07:37Z</time>
      </trkpt>
      <trkpt lat="43.78831" lon="4.04665">
        <ele>37.15</ele>
        <time>2019-11-17T14:07:38Z</time>
      </trkpt>
      <trkpt lat="43.78833" lon="4.04663">
        <ele>37.15</ele>
        <time>2019-11-17T14:07:39Z</time>
      </trkpt>
      <trkpt lat="43.78867" lon="4.04643">
        <ele>38.59</ele>
        <time>2019-11-17T14:07:52Z</time>
      </trkpt>
      <trkpt lat="43.78904" lon="4.0462">
        <ele>39.07</ele>
        <time>2019-11-17T14:08:05Z</time>
      </trkpt>
      <trkpt lat="43.7892" lon="4.04572">
        <ele>39.55</ele>
        <time>2019-11-17T14:08:16Z</time>
      </trkpt>
      <trkpt lat="43.78921" lon="4.04481">
        <ele>40.99</ele>
        <time>2019-11-17T14:08:35Z</time>
      </trkpt>
      <trkpt lat="43.78908" lon="4.04398">
        <ele>42.44</ele>
        <time>2019-11-17T14:08:53Z</time>
      </trkpt>
      <trkpt lat="43.78913" lon="4.04331">
        <ele>41.95</ele>
        <time>2019-11-17T14:09:08Z</time>
      </trkpt>
      <trkpt lat="43.78939" lon="4.04244">
        <ele>43.88</ele>
        <time>2019-11-17T14:09:28Z</time>
      </trkpt>
      <trkpt lat="43.78971" lon="4.0416">
        <ele>42.92</ele>
        <time>2019-11-17T14:09:48Z</time>
      </trkpt>
      <trkpt lat="43.79011" lon="4.04077">
        <ele>43.88</ele>
        <time>2019-11-17T14:10:09Z</time>
      </trkpt>
      <trkpt lat="43.79045" lon="4.03993">
        <ele>45.32</ele>
        <time>2019-11-17T14:10:29Z</time>
      </trkpt>
      <trkpt lat="43.79069" lon="4.03919">
        <ele>46.28</ele>
        <time>2019-11-17T14:10:46Z</time>
      </trkpt>
      <trkpt lat="43.79085" lon="4.03859">
        <ele>46.76</ele>
        <time>2019-11-17T14:11:00Z</time>
      </trkpt>
      <trkpt lat="43.79091" lon="4.03793">
        <ele>48.68</ele>
        <time>2019-11-17T14:11:15Z</time>
      </trkpt>
      <trkpt lat="43.79094" lon="4.03715">
        <ele>49.65</ele>
        <time>2019-11-17T14:11:33Z</time>
      </trkpt>
      <trkpt lat="43.79106" lon="4.03628">
        <ele>50.61</ele>
        <time>2019-11-17T14:11:53Z</time>
      </trkpt>
      <trkpt lat="43.79123" lon="4.03534">
        <ele>52.53</ele>
        <time>2019-11-17T14:12:15Z</time>
      </trkpt>
      <trkpt lat="43.79134" lon="4.03432">
        <ele>54.45</ele>
        <time>2019-11-17T14:12:38Z</time>
      </trkpt>
      <trkpt lat="43.79134" lon="4.03428">
        <ele>54.45</ele>
        <time>2019-11-17T14:12:39Z</time>
      </trkpt>
      <trkpt lat="43.79136" lon="4.03424">
        <ele>54.45</ele>
        <time>2019-11-17T14:12:40Z</time>
      </trkpt>
      <trkpt lat="43.79138" lon="4.03421">
        <ele>54.45</ele>
        <time>2019-11-17T14:12:41Z</time>
      </trkpt>
      <trkpt lat="43.79141" lon="4.0342">
        <ele>54.45</ele>
        <time>2019-11-17T14:12:42Z</time>
      </trkpt>
      <trkpt lat="43.79144" lon="4.03419">
        <ele>53.97</ele>
        <time>2019-11-17T14:12:43Z</time>
      </trkpt>
      <trkpt lat="43.79148" lon="4.03419">
        <ele>53.49</ele>
        <time>2019-11-17T14:12:44Z</time>
      </trkpt>
      <trkpt lat="43.79205" lon="4.03417">
        <ele>51.57</ele>
        <time>2019-11-17T14:13:01Z</time>
      </trkpt>
      <trkpt lat="43.79244" lon="4.03419">
        <ele>51.09</ele>
        <time>2019-11-17T14:13:13Z</time>
      </trkpt>
      <trkpt lat="43.7932" lon="4.03435">
        <ele>51.57</ele>
        <time>2019-11-17T14:13:35Z</time>
      </trkpt>
      <trkpt lat="43.79373" lon="4.03457">
        <ele>53.01</ele>
        <time>2019-11-17T14:13:53Z</time>
      </trkpt>
      <trkpt lat="43.79425" lon="4.03479">
        <ele>54.93</ele>
        <time>2019-11-17T14:14:10Z</time>
      </trkpt>
      <trkpt lat="43.7949" lon="4.03507">
        <ele>57.34</ele>
        <time>2019-11-17T14:14:30Z</time>
      </trkpt>
      <trkpt lat="43.79541" lon="4.03517">
        <ele>58.78</ele>
        <time>2019-11-17T14:14:46Z</time>
      </trkpt>
      <trkpt lat="43.79601" lon="4.03533">
        <ele>60.22</ele>
        <time>2019-11-17T14:15:04Z</time>
      </trkpt>
      <trkpt lat="43.79662" lon="4.03567">
        <ele>59.26</ele>
        <time>2019-11-17T14:15:22Z</time>
      </trkpt>
      <trkpt lat="43.79728" lon="4.03624">
        <ele>58.3</ele>
        <time>2019-11-17T14:15:39Z</time>
      </trkpt>
      <trkpt lat="43.79783" lon="4.03682">
        <ele>60.22</ele>
        <time>2019-11-17T14:15:56Z</time>
      </trkpt>
      <trkpt lat="43.79805" lon="4.03698">
        <ele>61.18</ele>
        <time>2019-11-17T14:16:02Z</time>
      </trkpt>
      <trkpt lat="43.79813" lon="4.03702">
        <ele>61.18</ele>
        <time>2019-11-17T14:16:04Z</time>
      </trkpt>
      <trkpt lat="43.79831" lon="4.03712">
        <ele>60.7</ele>
        <time>2019-11-17T14:16:09Z</time>
      </trkpt>
      <trkpt lat="43.79835" lon="4.03715">
        <ele>60.7</ele>
        <time>2019-11-17T14:16:10Z</time>
      </trkpt>
      <trkpt lat="43.79878" lon="4.03734">
        <ele>58.78</ele>
        <time>2019-11-17T14:16:20Z</time>
      </trkpt>
      <trkpt lat="43.79934" lon="4.0374">
        <ele>57.82</ele>
        <time>2019-11-17T14:16:35Z</time>
      </trkpt>
      <trkpt lat="43.79999" lon="4.03757">
        <ele>59.26</ele>
        <time>2019-11-17T14:16:52Z</time>
      </trkpt>
      <trkpt lat="43.80081" lon="4.03791">
        <ele>58.3</ele>
        <time>2019-11-17T14:17:11Z</time>
      </trkpt>
      <trkpt lat="43.80147" lon="4.03812">
        <ele>58.78</ele>
        <time>2019-11-17T14:17:29Z</time>
      </trkpt>
      <trkpt lat="43.80178" lon="4.03803">
        <ele>59.74</ele>
        <time>2019-11-17T14:17:40Z</time>
      </trkpt>
      <trkpt lat="43.80228" lon="4.03771">
        <ele>62.62</ele>
        <time>2019-11-17T14:18:01Z</time>
      </trkpt>
      <trkpt lat="43.80262" lon="4.03731">
        <ele>64.55</ele>
        <time>2019-11-17T14:18:19Z</time>
      </trkpt>
      <trkpt lat="43.80299" lon="4.037">
        <ele>65.51</ele>
        <time>2019-11-17T14:18:36Z</time>
      </trkpt>
      <trkpt lat="43.80311" lon="4.03695">
        <ele>65.51</ele>
        <time>2019-11-17T14:18:42Z</time>
      </trkpt>
      <trkpt lat="43.80313" lon="4.03694">
        <ele>65.51</ele>
        <time>2019-11-17T14:18:44Z</time>
      </trkpt>
      <trkpt lat="43.80314" lon="4.03693">
        <ele>65.51</ele>
        <time>2019-11-17T14:18:45Z</time>
      </trkpt>
      <trkpt lat="43.80316" lon="4.03692">
        <ele>65.51</ele>
        <time>2019-11-17T14:18:46Z</time>
      </trkpt>
      <trkpt lat="43.80351" lon="4.03681">
        <ele>65.99</ele>
        <time>2019-11-17T14:19:03Z</time>
      </trkpt>
      <trkpt lat="43.80391" lon="4.03664">
        <ele>66.47</ele>
        <time>2019-11-17T14:19:22Z</time>
      </trkpt>
      <trkpt lat="43.8042" lon="4.03648">
        <ele>69.83</ele>
        <time>2019-11-17T14:19:38Z</time>
      </trkpt>
      <trkpt lat="43.80442" lon="4.03635">
        <ele>73.2</ele>
        <time>2019-11-17T14:19:52Z</time>
      </trkpt>
      <trkpt lat="43.80466" lon="4.03629">
        <ele>75.12</ele>
        <time>2019-11-17T14:20:06Z</time>
      </trkpt>
      <trkpt lat="43.80468" lon="4.03629">
        <ele>75.12</ele>
        <time>2019-11-17T14:20:07Z</time>
      </trkpt>
      <trkpt lat="43.80473" lon="4.03625">
        <ele>77.52</ele>
        <time>2019-11-17T14:20:23Z</time>
      </trkpt>
      <trkpt lat="43.80475" lon="4.03624">
        <ele>77.04</ele>
        <time>2019-11-17T14:20:38Z</time>
      </trkpt>
      <trkpt lat="43.80476" lon="4.03623">
        <ele>76.08</ele>
        <time>2019-11-17T14:20:59Z</time>
      </trkpt>
      <trkpt lat="43.80476" lon="4.03623">
        <ele>75.6</ele>
        <time>2019-11-17T14:21:20Z</time>
      </trkpt>
      <trkpt lat="43.8048" lon="4.03624">
        <ele>75.12</ele>
        <time>2019-11-17T14:21:30Z</time>
      </trkpt>
      <trkpt lat="43.80482" lon="4.03623">
        <ele>74.64</ele>
        <time>2019-11-17T14:21:31Z</time>
      </trkpt>
      <trkpt lat="43.80484" lon="4.03622">
        <ele>74.64</ele>
        <time>2019-11-17T14:21:32Z</time>
      </trkpt>
      <trkpt lat="43.80486" lon="4.0362">
        <ele>74.64</ele>
        <time>2019-11-17T14:21:33Z</time>
      </trkpt>
      <trkpt lat="43.80489" lon="4.03618">
        <ele>74.16</ele>
        <time>2019-11-17T14:21:34Z</time>
      </trkpt>
      <trkpt lat="43.80493" lon="4.03617">
        <ele>73.68</ele>
        <time>2019-11-17T14:21:35Z</time>
      </trkpt>
      <trkpt lat="43.80498" lon="4.03615">
        <ele>73.2</ele>
        <time>2019-11-17T14:21:36Z</time>
      </trkpt>
      <trkpt lat="43.80504" lon="4.03614">
        <ele>72.72</ele>
        <time>2019-11-17T14:21:37Z</time>
      </trkpt>
      <trkpt lat="43.80577" lon="4.03609">
        <ele>68.87</ele>
        <time>2019-11-17T14:21:50Z</time>
      </trkpt>
      <trkpt lat="43.80626" lon="4.03605">
        <ele>70.79</ele>
        <time>2019-11-17T14:22:06Z</time>
      </trkpt>
      <trkpt lat="43.8066" lon="4.03594">
        <ele>73.68</ele>
        <time>2019-11-17T14:22:22Z</time>
      </trkpt>
      <trkpt lat="43.80681" lon="4.0357">
        <ele>73.2</ele>
        <time>2019-11-17T14:22:34Z</time>
      </trkpt>
      <trkpt lat="43.80662" lon="4.03502">
        <ele>70.31</ele>
        <time>2019-11-17T14:22:48Z</time>
      </trkpt>
      <trkpt lat="43.80648" lon="4.03448">
        <ele>69.83</ele>
        <time>2019-11-17T14:23:01Z</time>
      </trkpt>
      <trkpt lat="43.80619" lon="4.03364">
        <ele>71.27</ele>
        <time>2019-11-17T14:23:19Z</time>
      </trkpt>
      <trkpt lat="43.806" lon="4.03316">
        <ele>73.68</ele>
        <time>2019-11-17T14:23:32Z</time>
      </trkpt>
      <trkpt lat="43.80565" lon="4.03265">
        <ele>72.24</ele>
        <time>2019-11-17T14:23:46Z</time>
      </trkpt>
      <trkpt lat="43.80544" lon="4.03235">
        <ele>71.27</ele>
        <time>2019-11-17T14:23:51Z</time>
      </trkpt>
      <trkpt lat="43.80503" lon="4.03143">
        <ele>70.79</ele>
        <time>2019-11-17T14:24:06Z</time>
      </trkpt>
      <trkpt lat="43.80469" lon="4.03058">
        <ele>69.83</ele>
        <time>2019-11-17T14:24:19Z</time>
      </trkpt>
      <trkpt lat="43.80435" lon="4.02979">
        <ele>71.76</ele>
        <time>2019-11-17T14:24:35Z</time>
      </trkpt>
      <trkpt lat="43.80413" lon="4.02914">
        <ele>69.35</ele>
        <time>2019-11-17T14:24:48Z</time>
      </trkpt>
      <trkpt lat="43.80396" lon="4.02827">
        <ele>65.51</ele>
        <time>2019-11-17T14:24:59Z</time>
      </trkpt>
      <trkpt lat="43.80369" lon="4.02715">
        <ele>65.99</ele>
        <time>2019-11-17T14:25:16Z</time>
      </trkpt>
      <trkpt lat="43.80349" lon="4.02643">
        <ele>66.95</ele>
        <time>2019-11-17T14:25:29Z</time>
      </trkpt>
      <trkpt lat="43.80335" lon="4.02566">
        <ele>66.47</ele>
        <time>2019-11-17T14:25:42Z</time>
      </trkpt>
      <trkpt lat="43.80334" lon="4.02561">
        <ele>66.47</ele>
        <time>2019-11-17T14:25:43Z</time>
      </trkpt>
      <trkpt lat="43.80331" lon="4.02557">
        <ele>66.47</ele>
        <time>2019-11-17T14:25:44Z</time>
      </trkpt>
      <trkpt lat="43.80297" lon="4.02513">
        <ele>66.95</ele>
        <time>2019-11-17T14:25:58Z</time>
      </trkpt>
      <trkpt lat="43.80247" lon="4.02466">
        <ele>70.79</ele>
        <time>2019-11-17T14:26:17Z</time>
      </trkpt>
      <trkpt lat="43.80198" lon="4.0241">
        <ele>71.76</ele>
        <time>2019-11-17T14:26:37Z</time>
      </trkpt>
      <trkpt lat="43.80159" lon="4.02356">
        <ele>73.2</ele>
        <time>2019-11-17T14:26:55Z</time>
      </trkpt>
      <trkpt lat="43.80111" lon="4.02328">
        <ele>76.08</ele>
        <time>2019-11-17T14:27:10Z</time>
      </trkpt>
      <trkpt lat="43.80075" lon="4.02301">
        <ele>77.52</ele>
        <time>2019-11-17T14:27:21Z</time>
      </trkpt>
      <trkpt lat="43.80032" lon="4.02245">
        <ele>78</ele>
        <time>2019-11-17T14:27:37Z</time>
      </trkpt>
      <trkpt lat="43.80001" lon="4.02185">
        <ele>77.04</ele>
        <time>2019-11-17T14:27:51Z</time>
      </trkpt>
      <trkpt lat="43.79975" lon="4.02119">
        <ele>78</ele>
        <time>2019-11-17T14:28:05Z</time>
      </trkpt>
      <trkpt lat="43.79955" lon="4.02041">
        <ele>80.89</ele>
        <time>2019-11-17T14:28:21Z</time>
      </trkpt>
      <trkpt lat="43.79931" lon="4.01957">
        <ele>84.73</ele>
        <time>2019-11-17T14:28:38Z</time>
      </trkpt>
      <trkpt lat="43.79901" lon="4.01891">
        <ele>85.69</ele>
        <time>2019-11-17T14:28:52Z</time>
      </trkpt>
      <trkpt lat="43.79851" lon="4.01826">
        <ele>86.66</ele>
        <time>2019-11-17T14:29:10Z</time>
      </trkpt>
      <trkpt lat="43.79795" lon="4.01779">
        <ele>82.33</ele>
        <time>2019-11-17T14:29:25Z</time>
      </trkpt>
      <trkpt lat="43.79714" lon="4.0172">
        <ele>78.97</ele>
        <time>2019-11-17T14:29:42Z</time>
      </trkpt>
      <trkpt lat="43.79655" lon="4.01698">
        <ele>78.48</ele>
        <time>2019-11-17T14:29:57Z</time>
      </trkpt>
      <trkpt lat="43.79619" lon="4.01688">
        <ele>75.12</ele>
        <time>2019-11-17T14:30:10Z</time>
      </trkpt>
      <trkpt lat="43.79592" lon="4.01668">
        <ele>71.27</ele>
        <time>2019-11-17T14:30:24Z</time>
      </trkpt>
      <trkpt lat="43.79557" lon="4.01642">
        <ele>68.39</ele>
        <time>2019-11-17T14:30:35Z</time>
      </trkpt>
      <trkpt lat="43.79549" lon="4.01632">
        <ele>67.43</ele>
        <time>2019-11-17T14:30:37Z</time>
      </trkpt>
      <trkpt lat="43.79543" lon="4.01622">
        <ele>66.47</ele>
        <time>2019-11-17T14:30:39Z</time>
      </trkpt>
      <trkpt lat="43.7954" lon="4.01617">
        <ele>65.51</ele>
        <time>2019-11-17T14:30:40Z</time>
      </trkpt>
      <trkpt lat="43.79538" lon="4.01611">
        <ele>65.03</ele>
        <time>2019-11-17T14:30:41Z</time>
      </trkpt>
      <trkpt lat="43.79537" lon="4.01605">
        <ele>64.07</ele>
        <time>2019-11-17T14:30:42Z</time>
      </trkpt>
      <trkpt lat="43.79537" lon="4.01599">
        <ele>63.1</ele>
        <time>2019-11-17T14:30:43Z</time>
      </trkpt>
      <trkpt lat="43.79536" lon="4.01592">
        <ele>62.62</ele>
        <time>2019-11-17T14:30:44Z</time>
      </trkpt>
      <trkpt lat="43.79536" lon="4.01585">
        <ele>61.66</ele>
        <time>2019-11-17T14:30:45Z</time>
      </trkpt>
      <trkpt lat="43.79528" lon="4.01515">
        <ele>59.26</ele>
        <time>2019-11-17T14:30:54Z</time>
      </trkpt>
      <trkpt lat="43.79517" lon="4.01436">
        <ele>63.1</ele>
        <time>2019-11-17T14:31:09Z</time>
      </trkpt>
      <trkpt lat="43.79498" lon="4.01387">
        <ele>65.51</ele>
        <time>2019-11-17T14:31:21Z</time>
      </trkpt>
      <trkpt lat="43.79482" lon="4.0134">
        <ele>66.95</ele>
        <time>2019-11-17T14:31:33Z</time>
      </trkpt>
      <trkpt lat="43.79461" lon="4.01293">
        <ele>67.91</ele>
        <time>2019-11-17T14:31:44Z</time>
      </trkpt>
      <trkpt lat="43.79424" lon="4.01228">
        <ele>69.83</ele>
        <time>2019-11-17T14:31:59Z</time>
      </trkpt>
      <trkpt lat="43.79388" lon="4.01138">
        <ele>71.27</ele>
        <time>2019-11-17T14:32:17Z</time>
      </trkpt>
      <trkpt lat="43.79342" lon="4.01026">
        <ele>72.24</ele>
        <time>2019-11-17T14:32:39Z</time>
      </trkpt>
      <trkpt lat="43.79335" lon="4.01012">
        <ele>72.72</ele>
        <time>2019-11-17T14:32:42Z</time>
      </trkpt>
      <trkpt lat="43.79303" lon="4.00966">
        <ele>73.2</ele>
        <time>2019-11-17T14:32:53Z</time>
      </trkpt>
      <trkpt lat="43.79245" lon="4.00911">
        <ele>73.68</ele>
        <time>2019-11-17T14:33:09Z</time>
      </trkpt>
      <trkpt lat="43.79181" lon="4.00857">
        <ele>74.64</ele>
        <time>2019-11-17T14:33:25Z</time>
      </trkpt>
      <trkpt lat="43.79147" lon="4.00821">
        <ele>75.6</ele>
        <time>2019-11-17T14:33:34Z</time>
      </trkpt>
      <trkpt lat="43.79098" lon="4.00796">
        <ele>78</ele>
        <time>2019-11-17T14:33:47Z</time>
      </trkpt>
      <trkpt lat="43.79083" lon="4.00791">
        <ele>77.52</ele>
        <time>2019-11-17T14:33:51Z</time>
      </trkpt>
      <trkpt lat="43.79079" lon="4.00789">
        <ele>77.52</ele>
        <time>2019-11-17T14:33:52Z</time>
      </trkpt>
      <trkpt lat="43.79038" lon="4.00765">
        <ele>76.56</ele>
        <time>2019-11-17T14:34:01Z</time>
      </trkpt>
      <trkpt lat="43.7901" lon="4.00746">
        <ele>76.08</ele>
        <time>2019-11-17T14:34:08Z</time>
      </trkpt>
      <trkpt lat="43.79005" lon="4.00744">
        <ele>76.08</ele>
        <time>2019-11-17T14:34:09Z</time>
      </trkpt>
      <trkpt lat="43.7896" lon="4.00718">
        <ele>75.12</ele>
        <time>2019-11-17T14:34:21Z</time>
      </trkpt>
      <trkpt lat="43.78958" lon="4.00717">
        <ele>74.64</ele>
        <time>2019-11-17T14:34:22Z</time>
      </trkpt>
      <trkpt lat="43.78954" lon="4.00714">
        <ele>74.64</ele>
        <time>2019-11-17T14:34:23Z</time>
      </trkpt>
      <trkpt lat="43.7894" lon="4.00707">
        <ele>74.64</ele>
        <time>2019-11-17T14:34:26Z</time>
      </trkpt>
      <trkpt lat="43.78884" lon="4.00676">
        <ele>74.16</ele>
        <time>2019-11-17T14:34:39Z</time>
      </trkpt>
      <trkpt lat="43.7888" lon="4.00673">
        <ele>73.68</ele>
        <time>2019-11-17T14:34:40Z</time>
      </trkpt>
      <trkpt lat="43.78861" lon="4.00659">
        <ele>73.2</ele>
        <time>2019-11-17T14:34:45Z</time>
      </trkpt>
      <trkpt lat="43.78858" lon="4.00655">
        <ele>73.2</ele>
        <time>2019-11-17T14:34:46Z</time>
      </trkpt>
      <trkpt lat="43.78855" lon="4.00651">
        <ele>73.2</ele>
        <time>2019-11-17T14:34:47Z</time>
      </trkpt>
      <trkpt lat="43.78849" lon="4.00642">
        <ele>72.72</ele>
        <time>2019-11-17T14:34:49Z</time>
      </trkpt>
      <trkpt lat="43.78847" lon="4.00637">
        <ele>72.72</ele>
        <time>2019-11-17T14:34:50Z</time>
      </trkpt>
      <trkpt lat="43.78845" lon="4.00631">
        <ele>72.24</ele>
        <time>2019-11-17T14:34:51Z</time>
      </trkpt>
      <trkpt lat="43.78843" lon="4.00626">
        <ele>72.24</ele>
        <time>2019-11-17T14:34:52Z</time>
      </trkpt>
      <trkpt lat="43.78841" lon="4.0062">
        <ele>71.76</ele>
        <time>2019-11-17T14:34:53Z</time>
      </trkpt>
      <trkpt lat="43.78814" lon="4.00524">
        <ele>70.31</ele>
        <time>2019-11-17T14:35:09Z</time>
      </trkpt>
      <trkpt lat="43.78787" lon="4.00429">
        <ele>70.31</ele>
        <time>2019-11-17T14:35:26Z</time>
      </trkpt>
      <trkpt lat="43.78758" lon="4.00325">
        <ele>70.79</ele>
        <time>2019-11-17T14:35:45Z</time>
      </trkpt>
      <trkpt lat="43.7873" lon="4.00232">
        <ele>71.27</ele>
        <time>2019-11-17T14:36:02Z</time>
      </trkpt>
      <trkpt lat="43.78703" lon="4.00139">
        <ele>71.76</ele>
        <time>2019-11-17T14:36:19Z</time>
      </trkpt>
      <trkpt lat="43.78675" lon="4.00051">
        <ele>72.24</ele>
        <time>2019-11-17T14:36:35Z</time>
      </trkpt>
      <trkpt lat="43.78636" lon="3.99969">
        <ele>71.27</ele>
        <time>2019-11-17T14:36:50Z</time>
      </trkpt>
      <trkpt lat="43.78593" lon="3.99906">
        <ele>70.31</ele>
        <time>2019-11-17T14:37:00Z</time>
      </trkpt>
      <trkpt lat="43.78589" lon="3.99899">
        <ele>69.83</ele>
        <time>2019-11-17T14:37:01Z</time>
      </trkpt>
      <trkpt lat="43.78524" lon="3.99808">
        <ele>67.91</ele>
        <time>2019-11-17T14:37:16Z</time>
      </trkpt>
      <trkpt lat="43.78472" lon="3.99736">
        <ele>66.95</ele>
        <time>2019-11-17T14:37:31Z</time>
      </trkpt>
      <trkpt lat="43.78423" lon="3.99653">
        <ele>65.03</ele>
        <time>2019-11-17T14:37:47Z</time>
      </trkpt>
      <trkpt lat="43.7838" lon="3.99579">
        <ele>63.58</ele>
        <time>2019-11-17T14:38:01Z</time>
      </trkpt>
      <trkpt lat="43.78348" lon="3.99516">
        <ele>62.14</ele>
        <time>2019-11-17T14:38:13Z</time>
      </trkpt>
      <trkpt lat="43.78345" lon="3.99511">
        <ele>62.14</ele>
        <time>2019-11-17T14:38:14Z</time>
      </trkpt>
      <trkpt lat="43.78343" lon="3.99506">
        <ele>62.14</ele>
        <time>2019-11-17T14:38:15Z</time>
      </trkpt>
      <trkpt lat="43.7834" lon="3.99501">
        <ele>62.14</ele>
        <time>2019-11-17T14:38:16Z</time>
      </trkpt>
      <trkpt lat="43.78338" lon="3.99496">
        <ele>62.14</ele>
        <time>2019-11-17T14:38:17Z</time>
      </trkpt>
      <trkpt lat="43.78332" lon="3.9948">
        <ele>62.62</ele>
        <time>2019-11-17T14:38:20Z</time>
      </trkpt>
      <trkpt lat="43.78304" lon="3.99418">
        <ele>64.55</ele>
        <time>2019-11-17T14:38:35Z</time>
      </trkpt>
      <trkpt lat="43.78283" lon="3.99369">
        <ele>66.47</ele>
        <time>2019-11-17T14:38:49Z</time>
      </trkpt>
      <trkpt lat="43.78266" lon="3.99294">
        <ele>70.31</ele>
        <time>2019-11-17T14:39:04Z</time>
      </trkpt>
      <trkpt lat="43.78261" lon="3.99186">
        <ele>68.87</ele>
        <time>2019-11-17T14:39:22Z</time>
      </trkpt>
      <trkpt lat="43.78261" lon="3.99166">
        <ele>67.43</ele>
        <time>2019-11-17T14:39:25Z</time>
      </trkpt>
      <trkpt lat="43.78267" lon="3.99061">
        <ele>64.55</ele>
        <time>2019-11-17T14:39:40Z</time>
      </trkpt>
      <trkpt lat="43.78268" lon="3.99056">
        <ele>64.55</ele>
        <time>2019-11-17T14:39:41Z</time>
      </trkpt>
      <trkpt lat="43.78268" lon="3.99051">
        <ele>64.55</ele>
        <time>2019-11-17T14:39:42Z</time>
      </trkpt>
      <trkpt lat="43.78272" lon="3.98981">
        <ele>65.99</ele>
        <time>2019-11-17T14:39:55Z</time>
      </trkpt>
      <trkpt lat="43.78275" lon="3.98899">
        <ele>68.39</ele>
        <time>2019-11-17T14:40:09Z</time>
      </trkpt>
      <trkpt lat="43.78275" lon="3.98888">
        <ele>68.87</ele>
        <time>2019-11-17T14:40:11Z</time>
      </trkpt>
      <trkpt lat="43.78275" lon="3.98883">
        <ele>68.87</ele>
        <time>2019-11-17T14:40:12Z</time>
      </trkpt>
      <trkpt lat="43.78272" lon="3.98782">
        <ele>71.27</ele>
        <time>2019-11-17T14:40:27Z</time>
      </trkpt>
      <trkpt lat="43.78259" lon="3.98636">
        <ele>70.31</ele>
        <time>2019-11-17T14:40:45Z</time>
      </trkpt>
      <trkpt lat="43.78235" lon="3.98527">
        <ele>68.39</ele>
        <time>2019-11-17T14:41:01Z</time>
      </trkpt>
      <trkpt lat="43.78228" lon="3.98494">
        <ele>68.39</ele>
        <time>2019-11-17T14:41:06Z</time>
      </trkpt>
      <trkpt lat="43.78227" lon="3.98487">
        <ele>68.39</ele>
        <time>2019-11-17T14:41:07Z</time>
      </trkpt>
      <trkpt lat="43.78226" lon="3.98461">
        <ele>68.87</ele>
        <time>2019-11-17T14:41:11Z</time>
      </trkpt>
      <trkpt lat="43.78243" lon="3.98368">
        <ele>71.76</ele>
        <time>2019-11-17T14:41:28Z</time>
      </trkpt>
      <trkpt lat="43.7825" lon="3.98348">
        <ele>71.76</ele>
        <time>2019-11-17T14:41:32Z</time>
      </trkpt>
      <trkpt lat="43.78295" lon="3.98261">
        <ele>66.95</ele>
        <time>2019-11-17T14:41:47Z</time>
      </trkpt>
      <trkpt lat="43.78338" lon="3.9816">
        <ele>64.55</ele>
        <time>2019-11-17T14:42:04Z</time>
      </trkpt>
      <trkpt lat="43.78375" lon="3.98041">
        <ele>64.07</ele>
        <time>2019-11-17T14:42:24Z</time>
      </trkpt>
      <trkpt lat="43.78406" lon="3.97934">
        <ele>65.03</ele>
        <time>2019-11-17T14:42:41Z</time>
      </trkpt>
      <trkpt lat="43.78434" lon="3.97845">
        <ele>66.47</ele>
        <time>2019-11-17T14:42:59Z</time>
      </trkpt>
      <trkpt lat="43.7844" lon="3.97826">
        <ele>66.47</ele>
        <time>2019-11-17T14:43:02Z</time>
      </trkpt>
      <trkpt lat="43.78442" lon="3.9782">
        <ele>66.47</ele>
        <time>2019-11-17T14:43:03Z</time>
      </trkpt>
      <trkpt lat="43.78444" lon="3.97814">
        <ele>66.47</ele>
        <time>2019-11-17T14:43:04Z</time>
      </trkpt>
      <trkpt lat="43.78447" lon="3.97808">
        <ele>66.47</ele>
        <time>2019-11-17T14:43:05Z</time>
      </trkpt>
      <trkpt lat="43.78448" lon="3.97801">
        <ele>65.99</ele>
        <time>2019-11-17T14:43:06Z</time>
      </trkpt>
      <trkpt lat="43.78491" lon="3.97694">
        <ele>64.07</ele>
        <time>2019-11-17T14:43:23Z</time>
      </trkpt>
      <trkpt lat="43.78529" lon="3.97606">
        <ele>63.1</ele>
        <time>2019-11-17T14:43:39Z</time>
      </trkpt>
      <trkpt lat="43.78562" lon="3.97499">
        <ele>64.07</ele>
        <time>2019-11-17T14:43:57Z</time>
      </trkpt>
      <trkpt lat="43.78563" lon="3.97492">
        <ele>64.07</ele>
        <time>2019-11-17T14:43:58Z</time>
      </trkpt>
      <trkpt lat="43.78579" lon="3.97383">
        <ele>68.87</ele>
        <time>2019-11-17T14:44:14Z</time>
      </trkpt>
      <trkpt lat="43.78586" lon="3.9728">
        <ele>75.6</ele>
        <time>2019-11-17T14:44:30Z</time>
      </trkpt>
      <trkpt lat="43.78576" lon="3.97169">
        <ele>77.52</ele>
        <time>2019-11-17T14:44:47Z</time>
      </trkpt>
      <trkpt lat="43.78569" lon="3.97062">
        <ele>76.56</ele>
        <time>2019-11-17T14:45:05Z</time>
      </trkpt>
      <trkpt lat="43.78563" lon="3.96961">
        <ele>76.56</ele>
        <time>2019-11-17T14:45:21Z</time>
      </trkpt>
      <trkpt lat="43.78564" lon="3.96955">
        <ele>76.56</ele>
        <time>2019-11-17T14:45:22Z</time>
      </trkpt>
      <trkpt lat="43.78585" lon="3.96895">
        <ele>74.16</ele>
        <time>2019-11-17T14:45:36Z</time>
      </trkpt>
      <trkpt lat="43.78612" lon="3.96828">
        <ele>74.16</ele>
        <time>2019-11-17T14:45:56Z</time>
      </trkpt>
      <trkpt lat="43.7864" lon="3.96754">
        <ele>75.6</ele>
        <time>2019-11-17T14:46:17Z</time>
      </trkpt>
      <trkpt lat="43.78665" lon="3.9669">
        <ele>74.64</ele>
        <time>2019-11-17T14:46:35Z</time>
      </trkpt>
      <trkpt lat="43.78708" lon="3.9663">
        <ele>75.12</ele>
        <time>2019-11-17T14:46:56Z</time>
      </trkpt>
      <trkpt lat="43.78752" lon="3.96571">
        <ele>75.12</ele>
        <time>2019-11-17T14:47:14Z</time>
      </trkpt>
      <trkpt lat="43.78796" lon="3.9651">
        <ele>74.64</ele>
        <time>2019-11-17T14:47:31Z</time>
      </trkpt>
      <trkpt lat="43.78836" lon="3.96454">
        <ele>77.04</ele>
        <time>2019-11-17T14:47:47Z</time>
      </trkpt>
      <trkpt lat="43.78877" lon="3.96401">
        <ele>75.12</ele>
        <time>2019-11-17T14:48:02Z</time>
      </trkpt>
      <trkpt lat="43.789" lon="3.96365">
        <ele>74.16</ele>
        <time>2019-11-17T14:48:10Z</time>
      </trkpt>
      <trkpt lat="43.78902" lon="3.96359">
        <ele>73.68</ele>
        <time>2019-11-17T14:48:11Z</time>
      </trkpt>
      <trkpt lat="43.78904" lon="3.96354">
        <ele>73.68</ele>
        <time>2019-11-17T14:48:12Z</time>
      </trkpt>
      <trkpt lat="43.78907" lon="3.96342">
        <ele>73.2</ele>
        <time>2019-11-17T14:48:14Z</time>
      </trkpt>
      <trkpt lat="43.78908" lon="3.96337">
        <ele>73.2</ele>
        <time>2019-11-17T14:48:15Z</time>
      </trkpt>
      <trkpt lat="43.78909" lon="3.96331">
        <ele>73.2</ele>
        <time>2019-11-17T14:48:16Z</time>
      </trkpt>
      <trkpt lat="43.78909" lon="3.96239">
        <ele>73.68</ele>
        <time>2019-11-17T14:48:33Z</time>
      </trkpt>
      <trkpt lat="43.78907" lon="3.96233">
        <ele>73.2</ele>
        <time>2019-11-17T14:48:36Z</time>
      </trkpt>
      <trkpt lat="43.78903" lon="3.96231">
        <ele>72.24</ele>
        <time>2019-11-17T14:48:38Z</time>
      </trkpt>
      <trkpt lat="43.78901" lon="3.96231">
        <ele>72.24</ele>
        <time>2019-11-17T14:48:39Z</time>
      </trkpt>
      <trkpt lat="43.78899" lon="3.96231">
        <ele>71.76</ele>
        <time>2019-11-17T14:48:40Z</time>
      </trkpt>
      <trkpt lat="43.78897" lon="3.96232">
        <ele>71.27</ele>
        <time>2019-11-17T14:48:41Z</time>
      </trkpt>
      <trkpt lat="43.78894" lon="3.96232">
        <ele>71.27</ele>
        <time>2019-11-17T14:48:42Z</time>
      </trkpt>
      <trkpt lat="43.78891" lon="3.96234">
        <ele>70.79</ele>
        <time>2019-11-17T14:48:43Z</time>
      </trkpt>
      <trkpt lat="43.78888" lon="3.96235">
        <ele>70.31</ele>
        <time>2019-11-17T14:48:44Z</time>
      </trkpt>
      <trkpt lat="43.78831" lon="3.96245">
        <ele>69.35</ele>
        <time>2019-11-17T14:48:58Z</time>
      </trkpt>
      <trkpt lat="43.7877" lon="3.96259">
        <ele>69.83</ele>
        <time>2019-11-17T14:49:14Z</time>
      </trkpt>
      <trkpt lat="43.78763" lon="3.96266">
        <ele>69.83</ele>
        <time>2019-11-17T14:49:16Z</time>
      </trkpt>
      <trkpt lat="43.78714" lon="3.96337">
        <ele>71.76</ele>
        <time>2019-11-17T14:49:32Z</time>
      </trkpt>
      <trkpt lat="43.78692" lon="3.96371">
        <ele>72.24</ele>
        <time>2019-11-17T14:49:39Z</time>
      </trkpt>
      <trkpt lat="43.78686" lon="3.96381">
        <ele>72.24</ele>
        <time>2019-11-17T14:49:41Z</time>
      </trkpt>
      <trkpt lat="43.78635" lon="3.9644">
        <ele>73.68</ele>
        <time>2019-11-17T14:49:56Z</time>
      </trkpt>
      <trkpt lat="43.78573" lon="3.96485">
        <ele>70.79</ele>
        <time>2019-11-17T14:50:11Z</time>
      </trkpt>
      <trkpt lat="43.78569" lon="3.96487">
        <ele>70.31</ele>
        <time>2019-11-17T14:50:12Z</time>
      </trkpt>
      <trkpt lat="43.7852" lon="3.96521">
        <ele>71.76</ele>
        <time>2019-11-17T14:50:23Z</time>
      </trkpt>
      <trkpt lat="43.78495" lon="3.96538">
        <ele>73.2</ele>
        <time>2019-11-17T14:50:29Z</time>
      </trkpt>
      <trkpt lat="43.78433" lon="3.96579">
        <ele>72.24</ele>
        <time>2019-11-17T14:50:44Z</time>
      </trkpt>
      <trkpt lat="43.7842" lon="3.96585">
        <ele>72.72</ele>
        <time>2019-11-17T14:50:47Z</time>
      </trkpt>
      <trkpt lat="43.78411" lon="3.96587">
        <ele>73.2</ele>
        <time>2019-11-17T14:50:49Z</time>
      </trkpt>
      <trkpt lat="43.78379" lon="3.96589">
        <ele>74.16</ele>
        <time>2019-11-17T14:50:56Z</time>
      </trkpt>
      <trkpt lat="43.78371" lon="3.96589">
        <ele>74.16</ele>
        <time>2019-11-17T14:50:58Z</time>
      </trkpt>
      <trkpt lat="43.78293" lon="3.96591">
        <ele>72.72</ele>
        <time>2019-11-17T14:51:15Z</time>
      </trkpt>
      <trkpt lat="43.78214" lon="3.96595">
        <ele>72.24</ele>
        <time>2019-11-17T14:51:32Z</time>
      </trkpt>
      <trkpt lat="43.78142" lon="3.96598">
        <ele>72.72</ele>
        <time>2019-11-17T14:51:49Z</time>
      </trkpt>
      <trkpt lat="43.78058" lon="3.966">
        <ele>75.12</ele>
        <time>2019-11-17T14:52:09Z</time>
      </trkpt>
      <trkpt lat="43.77986" lon="3.96597">
        <ele>75.6</ele>
        <time>2019-11-17T14:52:28Z</time>
      </trkpt>
      <trkpt lat="43.77919" lon="3.96573">
        <ele>77.52</ele>
        <time>2019-11-17T14:52:47Z</time>
      </trkpt>
      <trkpt lat="43.77867" lon="3.96552">
        <ele>81.85</ele>
        <time>2019-11-17T14:53:03Z</time>
      </trkpt>
      <trkpt lat="43.77809" lon="3.96533">
        <ele>86.66</ele>
        <time>2019-11-17T14:53:21Z</time>
      </trkpt>
      <trkpt lat="43.77775" lon="3.96523">
        <ele>87.62</ele>
        <time>2019-11-17T14:53:36Z</time>
      </trkpt>
      <trkpt lat="43.77727" lon="3.9651">
        <ele>87.14</ele>
        <time>2019-11-17T14:53:55Z</time>
      </trkpt>
      <trkpt lat="43.77677" lon="3.96497">
        <ele>90.98</ele>
        <time>2019-11-17T14:54:14Z</time>
      </trkpt>
      <trkpt lat="43.77636" lon="3.96485">
        <ele>89.54</ele>
        <time>2019-11-17T14:54:32Z</time>
      </trkpt>
      <trkpt lat="43.77583" lon="3.96467">
        <ele>91.46</ele>
        <time>2019-11-17T14:54:53Z</time>
      </trkpt>
      <trkpt lat="43.77536" lon="3.96448">
        <ele>95.31</ele>
        <time>2019-11-17T14:55:12Z</time>
      </trkpt>
      <trkpt lat="43.77485" lon="3.96426">
        <ele>100.11</ele>
        <time>2019-11-17T14:55:33Z</time>
      </trkpt>
      <trkpt lat="43.77437" lon="3.96402">
        <ele>102.52</ele>
        <time>2019-11-17T14:55:52Z</time>
      </trkpt>
      <trkpt lat="43.774" lon="3.96363">
        <ele>103.96</ele>
        <time>2019-11-17T14:56:10Z</time>
      </trkpt>
      <trkpt lat="43.77382" lon="3.96336">
        <ele>106.36</ele>
        <time>2019-11-17T14:56:25Z</time>
      </trkpt>
      <trkpt lat="43.77382" lon="3.96339">
        <ele>107.32</ele>
        <time>2019-11-17T14:56:41Z</time>
      </trkpt>
      <trkpt lat="43.7738" lon="3.96338">
        <ele>106.36</ele>
        <time>2019-11-17T14:57:07Z</time>
      </trkpt>
      <trkpt lat="43.77376" lon="3.96335">
        <ele>106.84</ele>
        <time>2019-11-17T14:57:11Z</time>
      </trkpt>
      <trkpt lat="43.77375" lon="3.96334">
        <ele>106.84</ele>
        <time>2019-11-17T14:57:12Z</time>
      </trkpt>
      <trkpt lat="43.77374" lon="3.96332">
        <ele>106.84</ele>
        <time>2019-11-17T14:57:13Z</time>
      </trkpt>
      <trkpt lat="43.77372" lon="3.9633">
        <ele>107.32</ele>
        <time>2019-11-17T14:57:14Z</time>
      </trkpt>
      <trkpt lat="43.77371" lon="3.96327">
        <ele>107.32</ele>
        <time>2019-11-17T14:57:15Z</time>
      </trkpt>
      <trkpt lat="43.7737" lon="3.96324">
        <ele>107.32</ele>
        <time>2019-11-17T14:57:16Z</time>
      </trkpt>
      <trkpt lat="43.77368" lon="3.96322">
        <ele>107.32</ele>
        <time>2019-11-17T14:57:17Z</time>
      </trkpt>
      <trkpt lat="43.77366" lon="3.96319">
        <ele>107.32</ele>
        <time>2019-11-17T14:57:18Z</time>
      </trkpt>
      <trkpt lat="43.77364" lon="3.96317">
        <ele>107.32</ele>
        <time>2019-11-17T14:57:19Z</time>
      </trkpt>
      <trkpt lat="43.77328" lon="3.96271">
        <ele>107.81</ele>
        <time>2019-11-17T14:57:35Z</time>
      </trkpt>
      <trkpt lat="43.77286" lon="3.96245">
        <ele>105.88</ele>
        <time>2019-11-17T14:57:50Z</time>
      </trkpt>
      <trkpt lat="43.77238" lon="3.96201">
        <ele>103.48</ele>
        <time>2019-11-17T14:58:05Z</time>
      </trkpt>
      <trkpt lat="43.77206" lon="3.96159">
        <ele>102.04</ele>
        <time>2019-11-17T14:58:17Z</time>
      </trkpt>
      <trkpt lat="43.77175" lon="3.961">
        <ele>101.56</ele>
        <time>2019-11-17T14:58:31Z</time>
      </trkpt>
      <trkpt lat="43.77118" lon="3.96041">
        <ele>103.96</ele>
        <time>2019-11-17T14:58:49Z</time>
      </trkpt>
      <trkpt lat="43.77071" lon="3.95992">
        <ele>106.84</ele>
        <time>2019-11-17T14:59:06Z</time>
      </trkpt>
      <trkpt lat="43.77044" lon="3.95944">
        <ele>109.73</ele>
        <time>2019-11-17T14:59:21Z</time>
      </trkpt>
      <trkpt lat="43.77038" lon="3.95932">
        <ele>109.73</ele>
        <time>2019-11-17T14:59:26Z</time>
      </trkpt>
      <trkpt lat="43.77036" lon="3.9593">
        <ele>110.21</ele>
        <time>2019-11-17T14:59:27Z</time>
      </trkpt>
      <trkpt lat="43.77035" lon="3.95929">
        <ele>110.21</ele>
        <time>2019-11-17T14:59:28Z</time>
      </trkpt>
      <trkpt lat="43.77032" lon="3.95929">
        <ele>109.73</ele>
        <time>2019-11-17T14:59:30Z</time>
      </trkpt>
      <trkpt lat="43.7703" lon="3.9593">
        <ele>109.73</ele>
        <time>2019-11-17T14:59:31Z</time>
      </trkpt>
      <trkpt lat="43.77029" lon="3.95931">
        <ele>109.73</ele>
        <time>2019-11-17T14:59:32Z</time>
      </trkpt>
      <trkpt lat="43.77027" lon="3.95934">
        <ele>109.25</ele>
        <time>2019-11-17T14:59:33Z</time>
      </trkpt>
      <trkpt lat="43.77026" lon="3.95939">
        <ele>109.25</ele>
        <time>2019-11-17T14:59:34Z</time>
      </trkpt>
      <trkpt lat="43.77025" lon="3.95943">
        <ele>108.77</ele>
        <time>2019-11-17T14:59:35Z</time>
      </trkpt>
      <trkpt lat="43.77024" lon="3.95947">
        <ele>108.29</ele>
        <time>2019-11-17T14:59:36Z</time>
      </trkpt>
      <trkpt lat="43.77023" lon="3.95952">
        <ele>108.29</ele>
        <time>2019-11-17T14:59:37Z</time>
      </trkpt>
      <trkpt lat="43.77023" lon="3.95957">
        <ele>107.32</ele>
        <time>2019-11-17T14:59:38Z</time>
      </trkpt>
      <trkpt lat="43.77022" lon="3.95974">
        <ele>105.4</ele>
        <time>2019-11-17T14:59:41Z</time>
      </trkpt>
      <trkpt lat="43.77021" lon="3.9598">
        <ele>104.92</ele>
        <time>2019-11-17T14:59:42Z</time>
      </trkpt>
      <trkpt lat="43.77018" lon="3.96004">
        <ele>103.48</ele>
        <time>2019-11-17T14:59:46Z</time>
      </trkpt>
      <trkpt lat="43.77017" lon="3.96011">
        <ele>103</ele>
        <time>2019-11-17T14:59:47Z</time>
      </trkpt>
      <trkpt lat="43.77016" lon="3.96018">
        <ele>103</ele>
        <time>2019-11-17T14:59:48Z</time>
      </trkpt>
      <trkpt lat="43.77014" lon="3.96025">
        <ele>102.52</ele>
        <time>2019-11-17T14:59:49Z</time>
      </trkpt>
      <trkpt lat="43.77013" lon="3.96033">
        <ele>102.04</ele>
        <time>2019-11-17T14:59:50Z</time>
      </trkpt>
      <trkpt lat="43.77011" lon="3.9604">
        <ele>102.04</ele>
        <time>2019-11-17T14:59:51Z</time>
      </trkpt>
      <trkpt lat="43.76981" lon="3.96186">
        <ele>98.67</ele>
        <time>2019-11-17T15:00:08Z</time>
      </trkpt>
      <trkpt lat="43.76972" lon="3.9623">
        <ele>97.23</ele>
        <time>2019-11-17T15:00:13Z</time>
      </trkpt>
      <trkpt lat="43.7697" lon="3.96235">
        <ele>96.75</ele>
        <time>2019-11-17T15:00:14Z</time>
      </trkpt>
      <trkpt lat="43.76965" lon="3.96238">
        <ele>96.75</ele>
        <time>2019-11-17T15:00:15Z</time>
      </trkpt>
      <trkpt lat="43.76961" lon="3.96237">
        <ele>96.27</ele>
        <time>2019-11-17T15:00:16Z</time>
      </trkpt>
      <trkpt lat="43.76958" lon="3.96235">
        <ele>96.75</ele>
        <time>2019-11-17T15:00:17Z</time>
      </trkpt>
      <trkpt lat="43.76956" lon="3.96231">
        <ele>96.75</ele>
        <time>2019-11-17T15:00:18Z</time>
      </trkpt>
      <trkpt lat="43.76924" lon="3.96211">
        <ele>97.23</ele>
        <time>2019-11-17T15:00:29Z</time>
      </trkpt>
      <trkpt lat="43.76865" lon="3.96187">
        <ele>95.79</ele>
        <time>2019-11-17T15:00:46Z</time>
      </trkpt>
      <trkpt lat="43.76806" lon="3.9617">
        <ele>93.87</ele>
        <time>2019-11-17T15:01:01Z</time>
      </trkpt>
      <trkpt lat="43.76734" lon="3.9617">
        <ele>91.94</ele>
        <time>2019-11-17T15:01:15Z</time>
      </trkpt>
      <trkpt lat="43.76689" lon="3.9617">
        <ele>91.46</ele>
        <time>2019-11-17T15:01:24Z</time>
      </trkpt>
      <trkpt lat="43.76627" lon="3.96152">
        <ele>94.83</ele>
        <time>2019-11-17T15:01:40Z</time>
      </trkpt>
      <trkpt lat="43.76579" lon="3.96135">
        <ele>95.31</ele>
        <time>2019-11-17T15:01:54Z</time>
      </trkpt>
      <trkpt lat="43.76551" lon="3.96119">
        <ele>94.83</ele>
        <time>2019-11-17T15:02:05Z</time>
      </trkpt>
      <trkpt lat="43.76527" lon="3.96105">
        <ele>94.35</ele>
        <time>2019-11-17T15:02:16Z</time>
      </trkpt>
      <trkpt lat="43.76491" lon="3.96077">
        <ele>95.79</ele>
        <time>2019-11-17T15:02:32Z</time>
      </trkpt>
      <trkpt lat="43.76444" lon="3.96023">
        <ele>93.87</ele>
        <time>2019-11-17T15:02:48Z</time>
      </trkpt>
      <trkpt lat="43.76349" lon="3.95964">
        <ele>91.94</ele>
        <time>2019-11-17T15:03:10Z</time>
      </trkpt>
      <trkpt lat="43.76345" lon="3.95962">
        <ele>91.94</ele>
        <time>2019-11-17T15:03:11Z</time>
      </trkpt>
      <trkpt lat="43.7634" lon="3.95961">
        <ele>91.46</ele>
        <time>2019-11-17T15:03:12Z</time>
      </trkpt>
      <trkpt lat="43.76335" lon="3.95961">
        <ele>91.46</ele>
        <time>2019-11-17T15:03:13Z</time>
      </trkpt>
      <trkpt lat="43.76331" lon="3.95961">
        <ele>91.46</ele>
        <time>2019-11-17T15:03:14Z</time>
      </trkpt>
      <trkpt lat="43.76326" lon="3.95962">
        <ele>90.98</ele>
        <time>2019-11-17T15:03:15Z</time>
      </trkpt>
      <trkpt lat="43.76321" lon="3.95963">
        <ele>90.98</ele>
        <time>2019-11-17T15:03:16Z</time>
      </trkpt>
      <trkpt lat="43.76277" lon="3.95975">
        <ele>90.5</ele>
        <time>2019-11-17T15:03:26Z</time>
      </trkpt>
      <trkpt lat="43.76272" lon="3.95976">
        <ele>90.5</ele>
        <time>2019-11-17T15:03:27Z</time>
      </trkpt>
      <trkpt lat="43.76268" lon="3.95975">
        <ele>90.5</ele>
        <time>2019-11-17T15:03:28Z</time>
      </trkpt>
      <trkpt lat="43.76265" lon="3.95973">
        <ele>90.5</ele>
        <time>2019-11-17T15:03:29Z</time>
      </trkpt>
      <trkpt lat="43.76261" lon="3.95971">
        <ele>90.02</ele>
        <time>2019-11-17T15:03:30Z</time>
      </trkpt>
      <trkpt lat="43.76222" lon="3.95937">
        <ele>90.5</ele>
        <time>2019-11-17T15:03:42Z</time>
      </trkpt>
      <trkpt lat="43.76164" lon="3.95913">
        <ele>91.46</ele>
        <time>2019-11-17T15:03:58Z</time>
      </trkpt>
      <trkpt lat="43.76107" lon="3.95892">
        <ele>91.46</ele>
        <time>2019-11-17T15:04:15Z</time>
      </trkpt>
      <trkpt lat="43.76063" lon="3.95873">
        <ele>91.94</ele>
        <time>2019-11-17T15:04:30Z</time>
      </trkpt>
      <trkpt lat="43.76004" lon="3.95867">
        <ele>91.94</ele>
        <time>2019-11-17T15:04:49Z</time>
      </trkpt>
      <trkpt lat="43.7594" lon="3.95876">
        <ele>92.9</ele>
        <time>2019-11-17T15:05:10Z</time>
      </trkpt>
      <trkpt lat="43.75887" lon="3.95885">
        <ele>91.94</ele>
        <time>2019-11-17T15:05:28Z</time>
      </trkpt>
      <trkpt lat="43.75845" lon="3.9587">
        <ele>92.9</ele>
        <time>2019-11-17T15:05:44Z</time>
      </trkpt>
      <trkpt lat="43.7581" lon="3.95831">
        <ele>92.9</ele>
        <time>2019-11-17T15:05:59Z</time>
      </trkpt>
      <trkpt lat="43.75801" lon="3.95819">
        <ele>92.42</ele>
        <time>2019-11-17T15:06:03Z</time>
      </trkpt>
      <trkpt lat="43.75799" lon="3.95816">
        <ele>92.42</ele>
        <time>2019-11-17T15:06:04Z</time>
      </trkpt>
      <trkpt lat="43.75799" lon="3.95813">
        <ele>92.42</ele>
        <time>2019-11-17T15:06:05Z</time>
      </trkpt>
      <trkpt lat="43.75798" lon="3.95811">
        <ele>92.42</ele>
        <time>2019-11-17T15:06:06Z</time>
      </trkpt>
      <trkpt lat="43.75798" lon="3.95809">
        <ele>92.42</ele>
        <time>2019-11-17T15:06:07Z</time>
      </trkpt>
      <trkpt lat="43.75799" lon="3.95807">
        <ele>92.42</ele>
        <time>2019-11-17T15:06:08Z</time>
      </trkpt>
      <trkpt lat="43.75806" lon="3.95756">
        <ele>93.87</ele>
        <time>2019-11-17T15:06:23Z</time>
      </trkpt>
      <trkpt lat="43.75829" lon="3.95701">
        <ele>95.79</ele>
        <time>2019-11-17T15:06:39Z</time>
      </trkpt>
      <trkpt lat="43.75855" lon="3.95653">
        <ele>96.75</ele>
        <time>2019-11-17T15:06:55Z</time>
      </trkpt>
      <trkpt lat="43.75878" lon="3.95618">
        <ele>96.27</ele>
        <time>2019-11-17T15:07:11Z</time>
      </trkpt>
      <trkpt lat="43.75881" lon="3.95613">
        <ele>96.75</ele>
        <time>2019-11-17T15:07:25Z</time>
      </trkpt>
      <trkpt lat="43.7588" lon="3.95612">
        <ele>98.67</ele>
        <time>2019-11-17T15:08:03Z</time>
      </trkpt>
      <trkpt lat="43.75882" lon="3.95609">
        <ele>98.19</ele>
        <time>2019-11-17T15:08:38Z</time>
      </trkpt>
      <trkpt lat="43.75882" lon="3.95612">
        <ele>99.15</ele>
        <time>2019-11-17T15:09:03Z</time>
      </trkpt>
      <trkpt lat="43.75883" lon="3.95615">
        <ele>98.19</ele>
        <time>2019-11-17T15:09:27Z</time>
      </trkpt>
      <trkpt lat="43.75883" lon="3.95614">
        <ele>97.23</ele>
        <time>2019-11-17T15:09:35Z</time>
      </trkpt>
      <trkpt lat="43.75884" lon="3.95613">
        <ele>97.71</ele>
        <time>2019-11-17T15:09:36Z</time>
      </trkpt>
      <trkpt lat="43.75884" lon="3.95603">
        <ele>97.23</ele>
        <time>2019-11-17T15:09:40Z</time>
      </trkpt>
      <trkpt lat="43.75882" lon="3.95601">
        <ele>97.23</ele>
        <time>2019-11-17T15:09:41Z</time>
      </trkpt>
      <trkpt lat="43.7588" lon="3.956">
        <ele>96.75</ele>
        <time>2019-11-17T15:09:42Z</time>
      </trkpt>
      <trkpt lat="43.75841" lon="3.95596">
        <ele>97.71</ele>
        <time>2019-11-17T15:09:54Z</time>
      </trkpt>
      <trkpt lat="43.75837" lon="3.95595">
        <ele>97.71</ele>
        <time>2019-11-17T15:09:55Z</time>
      </trkpt>
      <trkpt lat="43.75765" lon="3.95588">
        <ele>101.08</ele>
        <time>2019-11-17T15:10:09Z</time>
      </trkpt>
      <trkpt lat="43.75684" lon="3.95581">
        <ele>102.04</ele>
        <time>2019-11-17T15:10:25Z</time>
      </trkpt>
      <trkpt lat="43.75648" lon="3.95578">
        <ele>101.08</ele>
        <time>2019-11-17T15:10:33Z</time>
      </trkpt>
      <trkpt lat="43.75575" lon="3.95583">
        <ele>100.6</ele>
        <time>2019-11-17T15:10:49Z</time>
      </trkpt>
      <trkpt lat="43.75515" lon="3.95615">
        <ele>97.71</ele>
        <time>2019-11-17T15:11:03Z</time>
      </trkpt>
      <trkpt lat="43.75475" lon="3.95639">
        <ele>99.63</ele>
        <time>2019-11-17T15:11:15Z</time>
      </trkpt>
      <trkpt lat="43.75421" lon="3.95671">
        <ele>99.63</ele>
        <time>2019-11-17T15:11:30Z</time>
      </trkpt>
      <trkpt lat="43.75371" lon="3.95699">
        <ele>100.11</ele>
        <time>2019-11-17T15:11:44Z</time>
      </trkpt>
      <trkpt lat="43.75336" lon="3.95705">
        <ele>98.67</ele>
        <time>2019-11-17T15:11:54Z</time>
      </trkpt>
      <trkpt lat="43.75313" lon="3.95667">
        <ele>96.27</ele>
        <time>2019-11-17T15:12:07Z</time>
      </trkpt>
      <trkpt lat="43.75288" lon="3.95616">
        <ele>96.75</ele>
        <time>2019-11-17T15:12:21Z</time>
      </trkpt>
      <trkpt lat="43.75264" lon="3.95565">
        <ele>98.19</ele>
        <time>2019-11-17T15:12:35Z</time>
      </trkpt>
      <trkpt lat="43.75234" lon="3.95531">
        <ele>98.19</ele>
        <time>2019-11-17T15:12:48Z</time>
      </trkpt>
      <trkpt lat="43.75213" lon="3.95504">
        <ele>97.71</ele>
        <time>2019-11-17T15:12:59Z</time>
      </trkpt>
      <trkpt lat="43.75213" lon="3.95502">
        <ele>97.71</ele>
        <time>2019-11-17T15:13:00Z</time>
      </trkpt>
      <trkpt lat="43.75213" lon="3.95499">
        <ele>98.19</ele>
        <time>2019-11-17T15:13:01Z</time>
      </trkpt>
      <trkpt lat="43.75214" lon="3.95498">
        <ele>98.19</ele>
        <time>2019-11-17T15:13:02Z</time>
      </trkpt>
      <trkpt lat="43.75215" lon="3.95497">
        <ele>98.19</ele>
        <time>2019-11-17T15:13:03Z</time>
      </trkpt>
      <trkpt lat="43.75217" lon="3.95497">
        <ele>98.19</ele>
        <time>2019-11-17T15:13:04Z</time>
      </trkpt>
      <trkpt lat="43.75219" lon="3.95497">
        <ele>98.19</ele>
        <time>2019-11-17T15:13:05Z</time>
      </trkpt>
      <trkpt lat="43.75224" lon="3.95496">
        <ele>98.19</ele>
        <time>2019-11-17T15:13:08Z</time>
      </trkpt>
      <trkpt lat="43.75225" lon="3.95495">
        <ele>98.19</ele>
        <time>2019-11-17T15:13:09Z</time>
      </trkpt>
      <trkpt lat="43.7523" lon="3.9549">
        <ele>98.19</ele>
        <time>2019-11-17T15:13:13Z</time>
      </trkpt>
      <trkpt lat="43.75231" lon="3.9549">
        <ele>98.19</ele>
        <time>2019-11-17T15:13:14Z</time>
      </trkpt>
      <trkpt lat="43.75235" lon="3.95491">
        <ele>98.19</ele>
        <time>2019-11-17T15:13:16Z</time>
      </trkpt>
      <trkpt lat="43.75236" lon="3.95491">
        <ele>98.19</ele>
        <time>2019-11-17T15:13:17Z</time>
      </trkpt>
      <trkpt lat="43.75237" lon="3.9549">
        <ele>98.67</ele>
        <time>2019-11-17T15:13:18Z</time>
      </trkpt>
      <trkpt lat="43.75237" lon="3.95487">
        <ele>98.67</ele>
        <time>2019-11-17T15:13:19Z</time>
      </trkpt>
      <trkpt lat="43.75238" lon="3.95485">
        <ele>98.67</ele>
        <time>2019-11-17T15:13:20Z</time>
      </trkpt>
      <trkpt lat="43.75239" lon="3.95484">
        <ele>98.67</ele>
        <time>2019-11-17T15:13:21Z</time>
      </trkpt>
      <trkpt lat="43.7524" lon="3.95483">
        <ele>98.67</ele>
        <time>2019-11-17T15:13:22Z</time>
      </trkpt>
      <trkpt lat="43.75241" lon="3.95482">
        <ele>98.67</ele>
        <time>2019-11-17T15:13:23Z</time>
      </trkpt>
      <trkpt lat="43.75242" lon="3.9548">
        <ele>99.15</ele>
        <time>2019-11-17T15:13:24Z</time>
      </trkpt>
      <trkpt lat="43.75242" lon="3.95478">
        <ele>98.67</ele>
        <time>2019-11-17T15:13:25Z</time>
      </trkpt>
      <trkpt lat="43.75238" lon="3.95472">
        <ele>98.67</ele>
        <time>2019-11-17T15:13:28Z</time>
      </trkpt>
      <trkpt lat="43.75236" lon="3.95472">
        <ele>98.67</ele>
        <time>2019-11-17T15:13:29Z</time>
      </trkpt>
      <trkpt lat="43.75234" lon="3.95474">
        <ele>98.67</ele>
        <time>2019-11-17T15:13:30Z</time>
      </trkpt>
      <trkpt lat="43.75232" lon="3.95476">
        <ele>98.67</ele>
        <time>2019-11-17T15:13:31Z</time>
      </trkpt>
      <trkpt lat="43.75212" lon="3.95491">
        <ele>99.15</ele>
        <time>2019-11-17T15:13:43Z</time>
      </trkpt>
      <trkpt lat="43.75211" lon="3.9549">
        <ele>97.71</ele>
        <time>2019-11-17T15:13:44Z</time>
      </trkpt>
      <trkpt lat="43.75208" lon="3.95488">
        <ele>96.27</ele>
        <time>2019-11-17T15:13:45Z</time>
      </trkpt>
      <trkpt lat="43.75206" lon="3.95487">
        <ele>94.83</ele>
        <time>2019-11-17T15:13:46Z</time>
      </trkpt>
      <trkpt lat="43.75204" lon="3.95485">
        <ele>93.87</ele>
        <time>2019-11-17T15:13:47Z</time>
      </trkpt>
      <trkpt lat="43.75202" lon="3.95482">
        <ele>92.9</ele>
        <time>2019-11-17T15:13:48Z</time>
      </trkpt>
      <trkpt lat="43.75199" lon="3.9548">
        <ele>91.94</ele>
        <time>2019-11-17T15:13:49Z</time>
      </trkpt>
      <trkpt lat="43.75186" lon="3.95468">
        <ele>90.5</ele>
        <time>2019-11-17T15:13:57Z</time>
      </trkpt>
      <trkpt lat="43.75185" lon="3.95466">
        <ele>90.5</ele>
        <time>2019-11-17T15:13:58Z</time>
      </trkpt>
      <trkpt lat="43.75184" lon="3.95463">
        <ele>90.98</ele>
        <time>2019-11-17T15:13:59Z</time>
      </trkpt>
      <trkpt lat="43.75182" lon="3.95461">
        <ele>90.98</ele>
        <time>2019-11-17T15:14:00Z</time>
      </trkpt>
      <trkpt lat="43.7518" lon="3.95459">
        <ele>90.98</ele>
        <time>2019-11-17T15:14:01Z</time>
      </trkpt>
      <trkpt lat="43.7517" lon="3.95452">
        <ele>92.42</ele>
        <time>2019-11-17T15:14:14Z</time>
      </trkpt>
      <trkpt lat="43.7517" lon="3.95454">
        <ele>94.83</ele>
        <time>2019-11-17T15:14:30Z</time>
      </trkpt>
      <trkpt lat="43.75171" lon="3.95454">
        <ele>94.83</ele>
        <time>2019-11-17T15:14:31Z</time>
      </trkpt>
      <trkpt lat="43.75171" lon="3.95453">
        <ele>94.83</ele>
        <time>2019-11-17T15:14:32Z</time>
      </trkpt>
      <trkpt lat="43.75171" lon="3.95451">
        <ele>94.83</ele>
        <time>2019-11-17T15:14:33Z</time>
      </trkpt>
      <trkpt lat="43.75169" lon="3.95449">
        <ele>95.31</ele>
        <time>2019-11-17T15:14:34Z</time>
      </trkpt>
      <trkpt lat="43.75168" lon="3.95448">
        <ele>94.83</ele>
        <time>2019-11-17T15:14:35Z</time>
      </trkpt>
      <trkpt lat="43.75128" lon="3.95422">
        <ele>94.83</ele>
        <time>2019-11-17T15:14:50Z</time>
      </trkpt>
      <trkpt lat="43.75081" lon="3.95386">
        <ele>97.23</ele>
        <time>2019-11-17T15:15:06Z</time>
      </trkpt>
      <trkpt lat="43.75046" lon="3.95364">
        <ele>97.71</ele>
        <time>2019-11-17T15:15:21Z</time>
      </trkpt>
      <trkpt lat="43.75038" lon="3.95361">
        <ele>97.23</ele>
        <time>2019-11-17T15:15:25Z</time>
      </trkpt>
      <trkpt lat="43.75037" lon="3.95362">
        <ele>97.23</ele>
        <time>2019-11-17T15:15:26Z</time>
      </trkpt>
      <trkpt lat="43.75042" lon="3.95365">
        <ele>97.23</ele>
        <time>2019-11-17T15:15:29Z</time>
      </trkpt>
      <trkpt lat="43.75045" lon="3.95365">
        <ele>96.75</ele>
        <time>2019-11-17T15:15:30Z</time>
      </trkpt>
      <trkpt lat="43.75047" lon="3.95366">
        <ele>97.23</ele>
        <time>2019-11-17T15:15:31Z</time>
      </trkpt>
      <trkpt lat="43.75085" lon="3.95389">
        <ele>96.27</ele>
        <time>2019-11-17T15:15:45Z</time>
      </trkpt>
      <trkpt lat="43.75129" lon="3.9542">
        <ele>97.23</ele>
        <time>2019-11-17T15:16:00Z</time>
      </trkpt>
      <trkpt lat="43.75147" lon="3.95434">
        <ele>98.19</ele>
        <time>2019-11-17T15:16:12Z</time>
      </trkpt>
      <trkpt lat="43.75177" lon="3.95459">
        <ele>98.19</ele>
        <time>2019-11-17T15:16:25Z</time>
      </trkpt>
      <trkpt lat="43.75205" lon="3.95499">
        <ele>97.71</ele>
        <time>2019-11-17T15:16:37Z</time>
      </trkpt>
      <trkpt lat="43.75213" lon="3.95511">
        <ele>97.23</ele>
        <time>2019-11-17T15:16:41Z</time>
      </trkpt>
      <trkpt lat="43.75253" lon="3.95553">
        <ele>95.79</ele>
        <time>2019-11-17T15:16:52Z</time>
      </trkpt>
      <trkpt lat="43.75256" lon="3.95558">
        <ele>95.79</ele>
        <time>2019-11-17T15:16:53Z</time>
      </trkpt>
      <trkpt lat="43.75267" lon="3.95583">
        <ele>95.79</ele>
        <time>2019-11-17T15:17:03Z</time>
      </trkpt>
      <trkpt lat="43.7527" lon="3.95583">
        <ele>97.23</ele>
        <time>2019-11-17T15:17:21Z</time>
      </trkpt>
      <trkpt lat="43.75271" lon="3.95583">
        <ele>97.71</ele>
        <time>2019-11-17T15:17:37Z</time>
      </trkpt>
    </trkseg>
  </trk>
</gpx>